MOUNT RAINIER
GEOLOGY & WEATHER
Hello guest! [ Log In ]
morageology.com Water Data for Nisqually River at Longmire

Nisqually River at Longmire

Date Range to view:
 
[ Graphical View | Weather History ]

View this data in a CSV Format

GMT Date/Time Local Date/Time Stage (ft) Rainfall (in) Turbidity (ntu) Air Temperature (°C) Dew Point Temperature (°C) Water Temperature (°C) Enclosure Temperature (°C) Turbidity Temperature (°C) 10-hour Fuel Temperature (°C) Relative Humidity (%) Water Conductivity (μS/cm) Air Level (ft) Water Level (psi) Battery (V)
2022-01-15 08:00:00 2022-01-15 00:00:00 -999.0000 36.18 -999.00 0.5000 0.5000 -999.0000 -0.8 -999 0.1 100.0 -999.0000 31.0060 -999.0000 12.7
2022-01-15 08:15:00 2022-01-15 00:15:00 -999.0000 36.18 -999.00 0.6000 0.6000 -999.0000 -0.8 -999 0.1 100.0 -999.0000 31.0060 -999.0000 12.7
2022-01-15 08:30:00 2022-01-15 00:30:00 -999.0000 36.18 -999.00 0.6000 0.6000 -999.0000 -0.8 -999 0.1 100.0 -999.0000 31.0060 -999.0000 12.7
2022-01-15 08:45:00 2022-01-15 00:45:00 -999.0000 36.18 -999.00 0.6000 0.6000 -999.0000 -0.8 -999 0.1 100.0 -999.0000 31.0060 -999.0000 12.7
2022-01-15 09:00:00 2022-01-15 01:00:00 -999.0000 36.18 -999.00 0.6000 0.6000 -999.0000 -0.8 -999 0.1 100.0 -999.0000 31.0030 -999.0000 12.7
2022-01-15 09:15:00 2022-01-15 01:15:00 -999.0000 36.18 -999.00 0.6000 0.6000 -999.0000 -0.8 -999 0.1 100.0 -999.0000 30.9930 -999.0000 12.7
2022-01-15 09:30:00 2022-01-15 01:30:00 -999.0000 36.18 -999.00 0.6000 0.6000 -999.0000 -0.8 -999 0.1 100.0 -999.0000 31.0030 -999.0000 12.7
2022-01-15 09:45:00 2022-01-15 01:45:00 -999.0000 36.18 -999.00 0.6000 0.6000 -999.0000 -0.8 -999 0.1 100.0 -999.0000 31.0000 -999.0000 12.7
2022-01-15 10:00:00 2022-01-15 02:00:00 -999.0000 36.18 -999.00 0.5000 0.5000 -999.0000 -0.8 -999 0.1 100.0 -999.0000 31.0060 -999.0000 12.7
2022-01-15 10:15:00 2022-01-15 02:15:00 -999.0000 36.18 -999.00 0.5000 0.5000 -999.0000 -0.8 -999 0.0 100.0 -999.0000 31.0030 -999.0000 12.7
2022-01-15 10:30:00 2022-01-15 02:30:00 -999.0000 36.18 -999.00 0.4000 0.4000 -999.0000 -0.8 -999 0.0 100.0 -999.0000 31.0060 -999.0000 12.7
2022-01-15 10:45:00 2022-01-15 02:45:00 -999.0000 36.18 -999.00 0.4000 0.4000 -999.0000 -0.8 -999 -0.1 100.0 -999.0000 31.0160 -999.0000 12.7
2022-01-15 11:00:00 2022-01-15 03:00:00 -999.0000 36.18 -999.00 0.3000 0.3000 -999.0000 -1.0 -999 -0.2 100.0 -999.0000 31.0060 -999.0000 12.7
2022-01-15 11:15:00 2022-01-15 03:15:00 -999.0000 36.18 -999.00 0.3000 0.3000 -999.0000 -0.8 -999 -0.2 100.0 -999.0000 31.0100 -999.0000 12.7
2022-01-15 11:30:00 2022-01-15 03:30:00 -999.0000 36.18 -999.00 0.2000 0.2000 -999.0000 -1.0 -999 -0.3 100.0 -999.0000 30.9960 -999.0000 12.7
2022-01-15 11:45:00 2022-01-15 03:45:00 -999.0000 36.18 -999.00 0.2000 0.2000 -999.0000 -1.0 -999 -0.3 100.0 -999.0000 30.9960 -999.0000 12.7
2022-01-15 12:00:00 2022-01-15 04:00:00 -999.0000 36.18 -999.00 0.2000 0.2000 -999.0000 -1.0 -999 -0.3 100.0 -999.0000 31.0000 -999.0000 12.7
2022-01-15 12:15:00 2022-01-15 04:15:00 -999.0000 36.18 -999.00 0.2000 0.2000 -999.0000 -1.0 -999 -0.3 100.0 -999.0000 31.0100 -999.0000 12.7
2022-01-15 12:30:00 2022-01-15 04:30:00 -999.0000 36.18 -999.00 0.2000 0.2000 -999.0000 -1.0 -999 -0.3 100.0 -999.0000 31.0330 -999.0000 12.7
2022-01-15 12:45:00 2022-01-15 04:45:00 -999.0000 36.18 -999.00 0.2000 0.2000 -999.0000 -1.0 -999 -0.3 100.0 -999.0000 31.0030 -999.0000 12.7
2022-01-15 13:00:00 2022-01-15 05:00:00 -999.0000 36.18 -999.00 0.2000 0.2000 -999.0000 -1.2 -999 -0.2 100.0 -999.0000 30.9800 -999.0000 12.7
2022-01-15 13:15:00 2022-01-15 05:15:00 -999.0000 36.18 -999.00 0.2000 0.2000 -999.0000 -1.0 -999 -0.3 100.0 -999.0000 30.9800 -999.0000 12.7
2022-01-15 13:30:00 2022-01-15 05:30:00 -999.0000 36.18 -999.00 0.3000 0.3000 -999.0000 -0.8 -999 -0.3 100.0 -999.0000 30.9800 -999.0000 12.7
2022-01-15 13:45:00 2022-01-15 05:45:00 -999.0000 36.18 -999.00 0.3000 0.3000 -999.0000 -1.0 -999 -0.2 100.0 -999.0000 30.9800 -999.0000 12.7
2022-01-15 14:00:00 2022-01-15 06:00:00 -999.0000 36.18 -999.00 0.3000 0.3000 -999.0000 -1.0 -999 -0.2 100.0 -999.0000 30.9730 -999.0000 12.7
2022-01-15 14:15:00 2022-01-15 06:15:00 -999.0000 36.18 -999.00 0.3000 0.3000 -999.0000 -1.0 -999 -0.2 100.0 -999.0000 30.9760 -999.0000 12.7
2022-01-15 14:30:00 2022-01-15 06:30:00 -999.0000 36.18 -999.00 0.3000 0.3000 -999.0000 -1.0 -999 -0.1 100.0 -999.0000 30.9700 -999.0000 12.7
2022-01-15 14:45:00 2022-01-15 06:45:00 -999.0000 36.18 -999.00 0.4000 0.4000 -999.0000 -1.0 -999 0.0 100.0 -999.0000 30.9760 -999.0000 12.7
2022-01-15 15:00:00 2022-01-15 07:00:00 -999.0000 36.18 -999.00 0.5000 0.5000 -999.0000 -0.8 -999 0.1 100.0 -999.0000 30.9760 -999.0000 12.7
2022-01-15 15:15:00 2022-01-15 07:15:00 -999.0000 36.18 -999.00 0.7000 0.7000 -999.0000 -0.8 -999 0.3 100.0 -999.0000 30.9860 -999.0000 12.7
2022-01-15 15:30:00 2022-01-15 07:30:00 -999.0000 36.18 -999.00 0.8000 0.8000 -999.0000 -0.7 -999 0.4 100.0 -999.0000 30.9860 -999.0000 12.7
2022-01-15 15:45:00 2022-01-15 07:45:00 -999.0000 36.18 -999.00 0.8000 0.8000 -999.0000 -0.7 -999 0.4 100.0 -999.0000 30.9830 -999.0000 12.7
2022-01-15 16:00:00 2022-01-15 08:00:00 -999.0000 36.18 -999.00 0.9000 0.9000 -999.0000 -0.7 -999 0.5 100.0 -999.0000 30.9800 -999.0000 12.7
2022-01-15 16:15:00 2022-01-15 08:15:00 -999.0000 36.18 -999.00 0.9000 0.9000 -999.0000 -0.7 -999 0.5 100.0 -999.0000 30.9860 -999.0000 12.7
2022-01-15 16:30:00 2022-01-15 08:30:00 -999.0000 36.18 -999.00 1.0000 1.0000 -999.0000 -0.5 -999 0.6 100.0 -999.0000 30.9830 -999.0000 12.7
2022-01-15 16:45:00 2022-01-15 08:45:00 -999.0000 36.18 -999.00 1.1000 1.1000 -999.0000 -0.3 -999 0.6 100.0 -999.0000 30.9860 -999.0000 12.7
2022-01-15 17:00:00 2022-01-15 09:00:00 -999.0000 36.18 -999.00 1.3000 1.3000 -999.0000 -0.1 -999 0.8 100.0 -999.0000 30.9830 -999.0000 12.8
2022-01-15 17:15:00 2022-01-15 09:15:00 -999.0000 36.18 -999.00 1.3000 1.3000 -999.0000 0.0 -999 0.8 100.0 -999.0000 30.9900 -999.0000 12.8
2022-01-15 17:30:00 2022-01-15 09:30:00 -999.0000 36.18 -999.00 1.4000 1.4000 -999.0000 0.4 -999 0.9 100.0 -999.0000 31.0000 -999.0000 12.8
2022-01-15 17:45:00 2022-01-15 09:45:00 -999.0000 36.18 -999.00 1.4000 1.4000 -999.0000 0.4 -999 0.9 100.0 -999.0000 31.0000 -999.0000 12.8
2022-01-15 18:00:00 2022-01-15 10:00:00 -999.0000 36.18 -999.00 1.5000 1.5000 -999.0000 0.7 -999 1.0 100.0 -999.0000 30.9930 -999.0000 12.8
2022-01-15 18:15:00 2022-01-15 10:15:00 -999.0000 36.18 -999.00 1.5000 1.5000 -999.0000 0.7 -999 1.1 100.0 -999.0000 30.9960 -999.0000 12.8
2022-01-15 18:30:00 2022-01-15 10:30:00 -999.0000 36.18 -999.00 1.6000 1.6000 -999.0000 0.9 -999 1.2 100.0 -999.0000 30.9960 -999.0000 12.8
2022-01-15 18:45:00 2022-01-15 10:45:00 -999.0000 36.18 -999.00 1.6000 1.6000 -999.0000 1.1 -999 1.2 100.0 -999.0000 30.9930 -999.0000 12.9
2022-01-15 19:00:00 2022-01-15 11:00:00 -999.0000 36.18 -999.00 1.7000 1.7000 -999.0000 1.1 -999 1.3 100.0 -999.0000 30.9900 -999.0000 12.8
2022-01-15 19:15:00 2022-01-15 11:15:00 -999.0000 36.18 -999.00 1.8000 1.8000 -999.0000 1.3 -999 1.5 100.0 -999.0000 30.9960 -999.0000 12.9
2022-01-15 19:30:00 2022-01-15 11:30:00 -999.0000 36.18 -999.00 2.5000 2.5000 -999.0000 1.6 -999 2.4 100.0 -999.0000 30.9930 -999.0000 13.1
2022-01-15 19:45:00 2022-01-15 11:45:00 -999.0000 36.18 -999.00 2.9000 2.7582 -999.0000 2.5 -999 2.7 99.0 -999.0000 30.9930 -999.0000 13.1
2022-01-15 20:00:00 2022-01-15 12:00:00 -999.0000 36.18 -999.00 3.3000 3.0141 -999.0000 3.7 -999 3.6 98.0 -999.0000 30.9930 -999.0000 13.5
2022-01-15 20:15:00 2022-01-15 12:15:00 -999.0000 36.18 -999.00 3.4000 3.1139 -999.0000 5.7 -999 4.0 98.0 -999.0000 30.9900 -999.0000 13.3
2022-01-15 20:30:00 2022-01-15 12:30:00 -999.0000 36.18 -999.00 3.3000 3.0141 -999.0000 7.1 -999 4.0 98.0 -999.0000 30.9830 -999.0000 13.3
2022-01-15 20:45:00 2022-01-15 12:45:00 -999.0000 36.18 -999.00 3.1000 2.9579 -999.0000 7.9 -999 3.6 99.0 -999.0000 30.9800 -999.0000 13.2
2022-01-15 21:00:00 2022-01-15 13:00:00 -999.0000 36.18 -999.00 3.1000 2.8146 -999.0000 8.3 -999 4.7 98.0 -999.0000 30.9800 -999.0000 13.4
2022-01-15 21:15:00 2022-01-15 13:15:00 -999.0000 36.18 -999.00 3.3000 3.0141 -999.0000 9.4 -999 5.6 98.0 -999.0000 30.9700 -999.0000 13.6
2022-01-15 21:30:00 2022-01-15 13:30:00 -999.0000 36.18 -999.00 3.6000 3.0216 -999.0000 11.1 -999 6.9 96.0 -999.0000 30.9630 -999.0000 13.7
2022-01-15 21:45:00 2022-01-15 13:45:00 -999.0000 36.18 -999.00 3.9000 3.1720 -999.0000 13.4 -999 7.9 95.0 -999.0000 30.9630 -999.0000 13.6
2022-01-15 22:00:00 2022-01-15 14:00:00 -999.0000 36.18 -999.00 3.9000 3.1720 -999.0000 15.7 -999 8.0 95.0 -999.0000 30.9590 -999.0000 13.7
2022-01-15 22:15:00 2022-01-15 14:15:00 -999.0000 36.18 -999.00 3.8000 3.2207 -999.0000 17.4 -999 7.9 96.0 -999.0000 30.9560 -999.0000 13.7
2022-01-15 22:30:00 2022-01-15 14:30:00 -999.0000 36.18 -999.00 3.8000 3.2207 -999.0000 18.5 -999 7.0 96.0 -999.0000 30.9490 -999.0000 13.6
2022-01-15 22:45:00 2022-01-15 14:45:00 -999.0000 36.18 -999.00 3.5000 3.0686 -999.0000 18.5 -999 5.8 97.0 -999.0000 30.9490 -999.0000 13.3
2022-01-15 23:00:00 2022-01-15 15:00:00 -999.0000 36.18 -999.00 3.3000 3.1577 -999.0000 17.1 -999 4.6 99.0 -999.0000 30.9490 -999.0000 13.2
2022-01-15 23:15:00 2022-01-15 15:15:00 -999.0000 36.18 -999.00 3.5000 3.0686 -999.0000 15.5 -999 5.3 97.0 -999.0000 30.9560 -999.0000 13.4
2022-01-15 23:30:00 2022-01-15 15:30:00 -999.0000 36.18 -999.00 3.4000 3.1139 -999.0000 14.6 -999 5.6 98.0 -999.0000 30.9560 -999.0000 13.4
2022-01-15 23:45:00 2022-01-15 15:45:00 -999.0000 36.18 -999.00 3.3000 2.8693 -999.0000 14.1 -999 5.0 97.0 -999.0000 30.9590 -999.0000 13.2
2022-01-16 00:00:00 2022-01-15 16:00:00 -999.0000 36.18 -999.00 3.0000 2.7148 -999.0000 13.0 -999 3.6 98.0 -999.0000 30.9590 -999.0000 13.1
2022-01-16 00:15:00 2022-01-15 16:15:00 -999.0000 36.18 -999.00 2.6000 2.6000 -999.0000 11.6 -999 2.5 100.0 -999.0000 30.9560 -999.0000 13.0
2022-01-16 00:30:00 2022-01-15 16:30:00 -999.0000 36.18 -999.00 2.2000 2.2000 -999.0000 9.7 -999 1.8 100.0 -999.0000 30.9560 -999.0000 12.9
2022-01-16 00:45:00 2022-01-15 16:45:00 -999.0000 36.18 -999.00 1.9000 1.9000 -999.0000 7.8 -999 1.4 100.0 -999.0000 30.9630 -999.0000 12.9
2022-01-16 01:00:00 2022-01-15 17:00:00 -999.0000 36.18 -999.00 1.6000 1.6000 -999.0000 6.0 -999 1.1 100.0 -999.0000 30.9590 -999.0000 12.9
2022-01-16 01:15:00 2022-01-15 17:15:00 -999.0000 36.18 -999.00 1.5000 1.5000 -999.0000 4.8 -999 0.9 100.0 -999.0000 30.9660 -999.0000 12.9
2022-01-16 01:30:00 2022-01-15 17:30:00 -999.0000 36.18 -999.00 1.3000 1.3000 -999.0000 3.9 -999 0.8 100.0 -999.0000 30.9700 -999.0000 12.9
2022-01-16 01:45:00 2022-01-15 17:45:00 -999.0000 36.18 -999.00 1.2000 1.2000 -999.0000 2.8 -999 0.7 100.0 -999.0000 30.9760 -999.0000 12.8
2022-01-16 02:00:00 2022-01-15 18:00:00 -999.0000 36.18 -999.00 1.1000 1.1000 -999.0000 2.1 -999 0.6 100.0 -999.0000 30.9700 -999.0000 12.8
2022-01-16 02:15:00 2022-01-15 18:15:00 -999.0000 36.18 -999.00 1.0000 1.0000 -999.0000 1.6 -999 0.5 100.0 -999.0000 30.9700 -999.0000 12.8
2022-01-16 02:30:00 2022-01-15 18:30:00 -999.0000 36.18 -999.00 0.9000 0.9000 -999.0000 1.3 -999 0.4 100.0 -999.0000 30.9660 -999.0000 12.8
2022-01-16 02:45:00 2022-01-15 18:45:00 -999.0000 36.18 -999.00 0.8000 0.8000 -999.0000 0.7 -999 0.4 100.0 -999.0000 30.9730 -999.0000 12.8
2022-01-16 03:00:00 2022-01-15 19:00:00 -999.0000 36.18 -999.00 0.8000 0.8000 -999.0000 0.4 -999 0.3 100.0 -999.0000 30.9660 -999.0000 12.8
2022-01-16 03:15:00 2022-01-15 19:15:00 -999.0000 36.18 -999.00 0.7000 0.7000 -999.0000 0.2 -999 0.3 100.0 -999.0000 30.9590 -999.0000 12.8
2022-01-16 03:30:00 2022-01-15 19:30:00 -999.0000 36.18 -999.00 0.7000 0.7000 -999.0000 0.2 -999 0.2 100.0 -999.0000 30.9630 -999.0000 12.8
2022-01-16 03:45:00 2022-01-15 19:45:00 -999.0000 36.18 -999.00 0.6000 0.6000 -999.0000 -0.1 -999 0.1 100.0 -999.0000 30.9660 -999.0000 12.8
2022-01-16 04:00:00 2022-01-15 20:00:00 -999.0000 36.18 -999.00 0.6000 0.6000 -999.0000 -0.3 -999 0.1 100.0 -999.0000 30.9590 -999.0000 12.8
2022-01-16 04:15:00 2022-01-15 20:15:00 -999.0000 36.18 -999.00 0.5000 0.5000 -999.0000 -0.3 -999 0.1 100.0 -999.0000 30.9660 -999.0000 12.8
2022-01-16 04:30:00 2022-01-15 20:30:00 -999.0000 36.18 -999.00 0.5000 0.5000 -999.0000 -0.3 -999 0.1 100.0 -999.0000 30.9660 -999.0000 12.8
2022-01-16 04:45:00 2022-01-15 20:45:00 -999.0000 36.18 -999.00 0.5000 0.5000 -999.0000 -0.5 -999 0.1 100.0 -999.0000 30.9660 -999.0000 12.8
2022-01-16 05:00:00 2022-01-15 21:00:00 -999.0000 36.18 -999.00 0.5000 0.5000 -999.0000 -0.7 -999 0.0 100.0 -999.0000 30.9630 -999.0000 12.8
2022-01-16 05:15:00 2022-01-15 21:15:00 -999.0000 36.18 -999.00 0.4000 0.4000 -999.0000 -0.7 -999 0.0 100.0 -999.0000 30.9590 -999.0000 12.8
2022-01-16 05:30:00 2022-01-15 21:30:00 -999.0000 36.18 -999.00 0.4000 0.4000 -999.0000 -0.7 -999 0.0 100.0 -999.0000 30.9560 -999.0000 12.8
2022-01-16 05:45:00 2022-01-15 21:45:00 -999.0000 36.18 -999.00 0.4000 0.4000 -999.0000 -0.8 -999 0.0 100.0 -999.0000 30.9560 -999.0000 12.8
2022-01-16 06:00:00 2022-01-15 22:00:00 -999.0000 36.18 -999.00 0.5000 0.5000 -999.0000 -0.8 -999 0.0 100.0 -999.0000 30.9560 -999.0000 12.8
2022-01-16 06:15:00 2022-01-15 22:15:00 -999.0000 36.18 -999.00 0.5000 0.5000 -999.0000 -0.8 -999 0.0 100.0 -999.0000 30.9590 -999.0000 12.8
2022-01-16 06:30:00 2022-01-15 22:30:00 -999.0000 36.18 -999.00 0.5000 0.5000 -999.0000 -0.8 -999 0.0 100.0 -999.0000 30.9560 -999.0000 12.8
2022-01-16 06:45:00 2022-01-15 22:45:00 -999.0000 36.18 -999.00 0.5000 0.5000 -999.0000 -0.8 -999 0.1 100.0 -999.0000 30.9590 -999.0000 12.8
2022-01-16 07:00:00 2022-01-15 23:00:00 -999.0000 36.18 -999.00 0.5000 0.5000 -999.0000 -0.7 -999 0.1 100.0 -999.0000 30.9530 -999.0000 12.8
2022-01-16 07:15:00 2022-01-15 23:15:00 -999.0000 36.18 -999.00 0.5000 0.5000 -999.0000 -0.8 -999 0.1 100.0 -999.0000 30.9490 -999.0000 12.8
2022-01-16 07:30:00 2022-01-15 23:30:00 -999.0000 36.18 -999.00 0.5000 0.5000 -999.0000 -0.7 -999 0.1 100.0 -999.0000 30.9460 -999.0000 12.8
2022-01-16 07:45:00 2022-01-15 23:45:00 -999.0000 36.18 -999.00 0.5000 0.5000 -999.0000 -0.8 -999 0.0 100.0 -999.0000 30.9390 -999.0000 12.8
2022-01-16 08:00:00 2022-01-16 00:00:00 -999.0000 36.18 -999.00 0.5000 0.5000 -999.0000 -0.8 -999 0.0 100.0 -999.0000 30.9530 -999.0000 12.8
2022-01-16 08:15:00 2022-01-16 00:15:00 -999.0000 36.18 -999.00 0.5000 0.5000 -999.0000 -0.8 -999 0.0 100.0 -999.0000 30.9260 -999.0000 12.8
2022-01-16 08:30:00 2022-01-16 00:30:00 -999.0000 36.18 -999.00 0.4000 0.4000 -999.0000 -0.8 -999 -0.1 100.0 -999.0000 30.9160 -999.0000 12.8
2022-01-16 08:45:00 2022-01-16 00:45:00 -999.0000 36.18 -999.00 0.4000 0.4000 -999.0000 -0.8 -999 -0.1 100.0 -999.0000 30.9330 -999.0000 12.8
2022-01-16 09:00:00 2022-01-16 01:00:00 -999.0000 36.18 -999.00 0.4000 0.4000 -999.0000 -1.0 -999 -0.1 100.0 -999.0000 30.9230 -999.0000 12.8
2022-01-16 09:15:00 2022-01-16 01:15:00 -999.0000 36.18 -999.00 0.3000 0.3000 -999.0000 -1.0 -999 -0.1 100.0 -999.0000 30.9190 -999.0000 12.8
2022-01-16 09:30:00 2022-01-16 01:30:00 -999.0000 36.18 -999.00 0.3000 0.3000 -999.0000 -1.0 -999 -0.2 100.0 -999.0000 30.9190 -999.0000 12.8
2022-01-16 09:45:00 2022-01-16 01:45:00 -999.0000 36.18 -999.00 0.3000 0.3000 -999.0000 -1.0 -999 -0.2 100.0 -999.0000 30.9260 -999.0000 12.8
2022-01-16 10:00:00 2022-01-16 02:00:00 -999.0000 36.18 -999.00 0.2000 0.2000 -999.0000 -1.0 -999 -0.2 100.0 -999.0000 30.9330 -999.0000 12.8
2022-01-16 10:15:00 2022-01-16 02:15:00 -999.0000 36.18 -999.00 0.2000 0.2000 -999.0000 -1.0 -999 -0.2 100.0 -999.0000 30.9190 -999.0000 12.8
2022-01-16 10:30:00 2022-01-16 02:30:00 -999.0000 36.18 -999.00 0.3000 0.3000 -999.0000 -1.0 -999 -0.2 100.0 -999.0000 30.9160 -999.0000 12.8
2022-01-16 10:45:00 2022-01-16 02:45:00 -999.0000 36.18 -999.00 0.3000 0.3000 -999.0000 -1.0 -999 -0.2 100.0 -999.0000 30.9160 -999.0000 12.8
2022-01-16 11:00:00 2022-01-16 03:00:00 -999.0000 36.18 -999.00 0.3000 0.3000 -999.0000 -1.2 -999 -0.2 100.0 -999.0000 30.9160 -999.0000 12.8
2022-01-16 11:15:00 2022-01-16 03:15:00 -999.0000 36.18 -999.00 0.2000 0.2000 -999.0000 -1.0 -999 -0.2 100.0 -999.0000 30.9090 -999.0000 12.8
2022-01-16 11:30:00 2022-01-16 03:30:00 -999.0000 36.18 -999.00 0.2000 0.2000 -999.0000 -1.0 -999 -0.3 100.0 -999.0000 30.9060 -999.0000 12.8
2022-01-16 11:45:00 2022-01-16 03:45:00 -999.0000 36.18 -999.00 0.2000 0.2000 -999.0000 -1.2 -999 -0.3 100.0 -999.0000 30.9030 -999.0000 12.8
2022-01-16 12:00:00 2022-01-16 04:00:00 -999.0000 36.18 -999.00 0.2000 0.2000 -999.0000 -1.2 -999 -0.3 100.0 -999.0000 30.8990 -999.0000 12.7
2022-01-16 12:15:00 2022-01-16 04:15:00 -999.0000 36.18 -999.00 0.2000 0.2000 -999.0000 -1.0 -999 -0.2 100.0 -999.0000 30.9030 -999.0000 12.7
2022-01-16 12:30:00 2022-01-16 04:30:00 -999.0000 36.18 -999.00 0.3000 0.3000 -999.0000 -0.8 -999 -0.2 100.0 -999.0000 30.8990 -999.0000 12.7
2022-01-16 12:45:00 2022-01-16 04:45:00 -999.0000 36.18 -999.00 0.3000 0.3000 -999.0000 -1.0 -999 -0.1 100.0 -999.0000 30.8990 -999.0000 12.7
2022-01-16 13:00:00 2022-01-16 05:00:00 -999.0000 36.18 -999.00 0.4000 0.4000 -999.0000 -0.8 -999 0.0 100.0 -999.0000 30.8890 -999.0000 12.8
2022-01-16 13:15:00 2022-01-16 05:15:00 -999.0000 36.18 -999.00 0.5000 0.5000 -999.0000 -0.8 -999 0.1 100.0 -999.0000 30.8930 -999.0000 12.7
2022-01-16 13:30:00 2022-01-16 05:30:00 -999.0000 36.18 -999.00 0.6000 0.6000 -999.0000 -0.8 -999 0.2 100.0 -999.0000 30.8890 -999.0000 12.7
2022-01-16 13:45:00 2022-01-16 05:45:00 -999.0000 36.18 -999.00 0.6000 0.6000 -999.0000 -0.8 -999 0.2 100.0 -999.0000 30.8860 -999.0000 12.7
2022-01-16 14:00:00 2022-01-16 06:00:00 -999.0000 36.18 -999.00 0.7000 0.7000 -999.0000 -0.8 -999 0.3 100.0 -999.0000 30.8890 -999.0000 12.8
2022-01-16 14:15:00 2022-01-16 06:15:00 -999.0000 36.18 -999.00 0.8000 0.8000 -999.0000 -0.7 -999 0.3 100.0 -999.0000 30.8830 -999.0000 12.7
2022-01-16 14:30:00 2022-01-16 06:30:00 -999.0000 36.18 -999.00 0.9000 0.9000 -999.0000 -0.5 -999 0.4 100.0 -999.0000 30.8830 -999.0000 12.7
2022-01-16 14:45:00 2022-01-16 06:45:00 -999.0000 36.18 -999.00 1.0000 1.0000 -999.0000 -0.7 -999 0.5 100.0 -999.0000 30.8790 -999.0000 12.7
2022-01-16 15:00:00 2022-01-16 07:00:00 -999.0000 36.18 -999.00 1.0000 1.0000 -999.0000 -0.5 -999 0.5 100.0 -999.0000 30.8790 -999.0000 12.7
2022-01-16 15:15:00 2022-01-16 07:15:00 -999.0000 36.18 -999.00 1.0000 1.0000 -999.0000 -0.5 -999 0.5 100.0 -999.0000 30.8860 -999.0000 12.7
2022-01-16 15:30:00 2022-01-16 07:30:00 -999.0000 36.18 -999.00 1.0000 1.0000 -999.0000 -0.3 -999 0.5 100.0 -999.0000 30.8830 -999.0000 12.7
2022-01-16 15:45:00 2022-01-16 07:45:00 -999.0000 36.18 -999.00 1.0000 1.0000 -999.0000 -0.3 -999 0.6 100.0 -999.0000 30.8790 -999.0000 12.7
2022-01-16 16:00:00 2022-01-16 08:00:00 -999.0000 36.18 -999.00 1.0000 1.0000 -999.0000 -0.3 -999 0.5 100.0 -999.0000 30.8830 -999.0000 12.8
2022-01-16 16:15:00 2022-01-16 08:15:00 -999.0000 36.18 -999.00 1.0000 1.0000 -999.0000 -0.1 -999 0.5 100.0 -999.0000 30.8790 -999.0000 12.7
2022-01-16 16:30:00 2022-01-16 08:30:00 -999.0000 36.18 -999.00 1.1000 1.1000 -999.0000 -0.3 -999 0.6 100.0 -999.0000 30.8790 -999.0000 12.8
2022-01-16 16:45:00 2022-01-16 08:45:00 -999.0000 36.18 -999.00 1.2000 1.2000 -999.0000 -0.1 -999 0.7 100.0 -999.0000 30.8860 -999.0000 12.8
2022-01-16 17:00:00 2022-01-16 09:00:00 -999.0000 36.18 -999.00 1.3000 1.3000 -999.0000 0.0 -999 0.7 100.0 -999.0000 30.8790 -999.0000 12.8
2022-01-16 17:15:00 2022-01-16 09:15:00 -999.0000 36.18 -999.00 1.2000 1.2000 -999.0000 0.2 -999 0.8 100.0 -999.0000 30.8760 -999.0000 12.8
2022-01-16 17:30:00 2022-01-16 09:30:00 -999.0000 36.18 -999.00 1.4000 1.4000 -999.0000 0.2 -999 0.9 100.0 -999.0000 30.8730 -999.0000 12.8
2022-01-16 17:45:00 2022-01-16 09:45:00 -999.0000 36.18 -999.00 1.6000 1.6000 -999.0000 0.4 -999 1.2 100.0 -999.0000 30.8660 -999.0000 12.9
2022-01-16 18:00:00 2022-01-16 10:00:00 -999.0000 36.18 -999.00 1.9000 1.9000 -999.0000 0.7 -999 1.5 100.0 -999.0000 30.8620 -999.0000 12.9
2022-01-16 18:15:00 2022-01-16 10:15:00 -999.0000 36.18 -999.00 2.1000 2.1000 -999.0000 1.3 -999 1.7 100.0 -999.0000 30.8730 -999.0000 12.9
2022-01-16 18:30:00 2022-01-16 10:30:00 -999.0000 36.18 -999.00 2.3000 2.3000 -999.0000 1.6 -999 1.9 100.0 -999.0000 30.8730 -999.0000 13.0
2022-01-16 18:45:00 2022-01-16 10:45:00 -999.0000 36.18 -999.00 2.8000 2.6583 -999.0000 2.0 -999 2.3 99.0 -999.0000 30.8690 -999.0000 13.1
2022-01-16 19:00:00 2022-01-16 11:00:00 -999.0000 36.18 -999.00 2.8000 2.8000 -999.0000 2.5 -999 2.5 100.0 -999.0000 30.8590 -999.0000 13.1
2022-01-16 19:15:00 2022-01-16 11:15:00 -999.0000 36.18 -999.00 2.8000 2.6583 -999.0000 3.2 -999 2.5 99.0 -999.0000 30.8560 -999.0000 13.1
2022-01-16 19:30:00 2022-01-16 11:30:00 -999.0000 36.18 -999.00 2.9000 2.7582 -999.0000 3.6 -999 2.9 99.0 -999.0000 30.8620 -999.0000 13.3
2022-01-16 19:45:00 2022-01-16 11:45:00 -999.0000 36.18 -999.00 3.1000 2.8146 -999.0000 4.4 -999 3.2 98.0 -999.0000 30.8590 -999.0000 13.3
2022-01-16 20:00:00 2022-01-16 12:00:00 -999.0000 36.18 -999.00 4.1000 3.3708 -999.0000 5.7 -999 5.3 95.0 -999.0000 30.8590 -999.0000 14.1
2022-01-16 20:15:00 2022-01-16 12:15:00 -999.0000 36.18 -999.00 4.5000 3.3130 -999.0000 9.0 -999 7.4 92.0 -999.0000 30.8560 -999.0000 14.0
2022-01-16 20:30:00 2022-01-16 12:30:00 -999.0000 36.18 -999.00 4.5000 3.4662 -999.0000 13.0 -999 8.4 93.0 -999.0000 30.8520 -999.0000 13.7
2022-01-16 20:45:00 2022-01-16 12:45:00 -999.0000 36.18 -999.00 3.7000 2.9731 -999.0000 15.9 -999 7.0 95.0 -999.0000 30.8520 -999.0000 13.5
2022-01-16 21:00:00 2022-01-16 13:00:00 -999.0000 36.18 -999.00 3.4000 2.9689 -999.0000 16.4 -999 4.8 97.0 -999.0000 30.8490 -999.0000 13.2
2022-01-16 21:15:00 2022-01-16 13:15:00 -999.0000 36.18 -999.00 3.3000 2.8693 -999.0000 15.0 -999 3.9 97.0 -999.0000 30.8460 -999.0000 13.2
2022-01-16 21:30:00 2022-01-16 13:30:00 -999.0000 36.18 -999.00 3.3000 2.8693 -999.0000 13.2 -999 3.8 97.0 -999.0000 30.8360 -999.0000 13.2
2022-01-16 21:45:00 2022-01-16 13:45:00 -999.0000 36.18 -999.00 3.4000 2.8226 -999.0000 11.8 -999 3.6 96.0 -999.0000 30.8290 -999.0000 13.2
2022-01-16 22:00:00 2022-01-16 14:00:00 -999.0000 36.18 -999.00 3.5000 2.9221 -999.0000 10.6 -999 3.6 96.0 -999.0000 30.8120 -999.0000 13.2
2022-01-16 22:15:00 2022-01-16 14:15:00 -999.0000 36.18 -999.00 3.5000 3.0686 -999.0000 9.5 -999 3.4 97.0 -999.0000 30.8120 -999.0000 13.1
2022-01-16 22:30:00 2022-01-16 14:30:00 -999.0000 36.18 -999.00 3.7000 3.1212 -999.0000 8.6 -999 3.6 96.0 -999.0000 30.8020 -999.0000 13.1
2022-01-16 22:45:00 2022-01-16 14:45:00 -999.0000 36.18 -999.00 3.6000 3.0216 -999.0000 7.9 -999 3.4 96.0 -999.0000 30.7990 -999.0000 13.1
2022-01-16 23:00:00 2022-01-16 15:00:00 -999.0000 36.18 -999.00 3.5000 2.9221 -999.0000 7.1 -999 3.1 96.0 -999.0000 30.7960 -999.0000 13.0
2022-01-16 23:15:00 2022-01-16 15:15:00 -999.0000 36.18 -999.00 3.3000 2.8693 -999.0000 6.5 -999 2.8 97.0 -999.0000 30.7960 -999.0000 13.0
2022-01-16 23:30:00 2022-01-16 15:30:00 -999.0000 36.18 -999.00 3.1000 2.8146 -999.0000 6.0 -999 2.6 98.0 -999.0000 30.7890 -999.0000 13.0
2022-01-16 23:45:00 2022-01-16 15:45:00 -999.0000 36.18 -999.00 2.9000 2.7582 -999.0000 5.3 -999 2.3 99.0 -999.0000 30.7860 -999.0000 12.9
2022-01-17 00:00:00 2022-01-16 16:00:00 -999.0000 36.18 -999.00 2.6000 2.4585 -999.0000 4.6 -999 2.1 99.0 -999.0000 30.7960 -999.0000 12.9
2022-01-17 00:15:00 2022-01-16 16:15:00 -999.0000 36.18 -999.00 2.5000 2.3586 -999.0000 3.9 -999 1.9 99.0 -999.0000 30.7960 -999.0000 12.9
2022-01-17 00:30:00 2022-01-16 16:30:00 -999.0000 36.18 -999.00 2.4000 2.2587 -999.0000 3.6 -999 1.8 99.0 -999.0000 30.8020 -999.0000 12.9
2022-01-17 00:45:00 2022-01-16 16:45:00 -999.0000 36.18 -999.00 2.2000 2.2000 -999.0000 3.0 -999 1.7 100.0 -999.0000 30.8060 -999.0000 12.9
2022-01-17 01:00:00 2022-01-16 17:00:00 -999.0000 36.18 -999.00 2.1000 2.1000 -999.0000 2.5 -999 1.5 100.0 -999.0000 30.7990 -999.0000 12.9
2022-01-17 01:15:00 2022-01-16 17:15:00 -999.0000 36.18 -999.00 1.8000 1.8000 -999.0000 2.1 -999 1.3 100.0 -999.0000 30.8020 -999.0000 12.8
2022-01-17 01:30:00 2022-01-16 17:30:00 -999.0000 36.18 -999.00 1.8000 1.8000 -999.0000 1.8 -999 1.2 100.0 -999.0000 30.7960 -999.0000 12.9
2022-01-17 01:45:00 2022-01-16 17:45:00 -999.0000 36.18 -999.00 1.7000 1.7000 -999.0000 1.4 -999 1.2 100.0 -999.0000 30.7890 -999.0000 12.8
2022-01-17 02:00:00 2022-01-16 18:00:00 -999.0000 36.18 -999.00 1.7000 1.7000 -999.0000 1.3 -999 1.1 100.0 -999.0000 30.7890 -999.0000 12.8
2022-01-17 02:15:00 2022-01-16 18:15:00 -999.0000 36.18 -999.00 1.7000 1.7000 -999.0000 1.1 -999 1.2 100.0 -999.0000 30.7860 -999.0000 12.8
2022-01-17 02:30:00 2022-01-16 18:30:00 -999.0000 36.18 -999.00 1.7000 1.7000 -999.0000 0.9 -999 1.1 100.0 -999.0000 30.7820 -999.0000 12.8
2022-01-17 02:45:00 2022-01-16 18:45:00 -999.0000 36.18 -999.00 1.6000 1.6000 -999.0000 0.7 -999 1.1 100.0 -999.0000 30.7820 -999.0000 12.8
2022-01-17 03:00:00 2022-01-16 19:00:00 -999.0000 36.18 -999.00 1.7000 1.7000 -999.0000 0.7 -999 1.1 100.0 -999.0000 30.7790 -999.0000 12.8
2022-01-17 03:15:00 2022-01-16 19:15:00 -999.0000 36.18 -999.00 1.7000 1.7000 -999.0000 0.6 -999 1.1 100.0 -999.0000 30.7820 -999.0000 12.8
2022-01-17 03:30:00 2022-01-16 19:30:00 -999.0000 36.18 -999.00 1.7000 1.7000 -999.0000 0.6 -999 1.1 100.0 -999.0000 30.7820 -999.0000 12.8
2022-01-17 03:45:00 2022-01-16 19:45:00 -999.0000 36.18 -999.00 1.7000 1.7000 -999.0000 0.6 -999 1.1 100.0 -999.0000 30.7820 -999.0000 12.8
2022-01-17 04:00:00 2022-01-16 20:00:00 -999.0000 36.18 -999.00 1.7000 1.7000 -999.0000 0.6 -999 1.1 100.0 -999.0000 30.7820 -999.0000 12.8
2022-01-17 04:15:00 2022-01-16 20:15:00 -999.0000 36.18 -999.00 1.7000 1.7000 -999.0000 0.6 -999 1.1 100.0 -999.0000 30.7890 -999.0000 12.8
2022-01-17 04:30:00 2022-01-16 20:30:00 -999.0000 36.18 -999.00 1.8000 1.8000 -999.0000 0.6 -999 1.2 100.0 -999.0000 30.7820 -999.0000 12.8
2022-01-17 04:45:00 2022-01-16 20:45:00 -999.0000 36.18 -999.00 1.8000 1.8000 -999.0000 0.4 -999 1.2 100.0 -999.0000 30.7720 -999.0000 12.8
2022-01-17 05:00:00 2022-01-16 21:00:00 -999.0000 36.18 -999.00 1.8000 1.8000 -999.0000 0.4 -999 1.2 100.0 -999.0000 30.7720 -999.0000 12.8
2022-01-17 05:15:00 2022-01-16 21:15:00 -999.0000 36.18 -999.00 1.8000 1.8000 -999.0000 0.6 -999 1.2 100.0 -999.0000 30.7720 -999.0000 12.8
2022-01-17 05:30:00 2022-01-16 21:30:00 -999.0000 36.18 -999.00 1.7000 1.7000 -999.0000 0.6 -999 1.1 100.0 -999.0000 30.7720 -999.0000 12.8
2022-01-17 05:45:00 2022-01-16 21:45:00 -999.0000 36.18 -999.00 1.6000 1.6000 -999.0000 0.6 -999 1.1 100.0 -999.0000 30.7650 -999.0000 12.8
2022-01-17 06:00:00 2022-01-16 22:00:00 -999.0000 36.18 -999.00 1.6000 1.6000 -999.0000 0.4 -999 1.1 100.0 -999.0000 30.7720 -999.0000 12.8
2022-01-17 06:15:00 2022-01-16 22:15:00 -999.0000 36.18 -999.00 1.7000 1.7000 -999.0000 0.4 -999 1.1 100.0 -999.0000 30.7650 -999.0000 12.8
2022-01-17 06:30:00 2022-01-16 22:30:00 -999.0000 36.18 -999.00 1.7000 1.7000 -999.0000 0.6 -999 1.1 100.0 -999.0000 30.7650 -999.0000 12.8
2022-01-17 06:45:00 2022-01-16 22:45:00 -999.0000 36.18 -999.00 1.7000 1.7000 -999.0000 0.4 -999 1.2 100.0 -999.0000 30.7620 -999.0000 12.8
2022-01-17 07:00:00 2022-01-16 23:00:00 -999.0000 36.18 -999.00 1.8000 1.8000 -999.0000 0.4 -999 1.2 100.0 -999.0000 30.7620 -999.0000 12.8
2022-01-17 07:15:00 2022-01-16 23:15:00 -999.0000 36.18 -999.00 1.8000 1.8000 -999.0000 0.6 -999 1.2 100.0 -999.0000 30.7620 -999.0000 12.8
2022-01-17 07:30:00 2022-01-16 23:30:00 -999.0000 36.18 -999.00 1.8000 1.8000 -999.0000 0.6 -999 1.3 100.0 -999.0000 30.7550 -999.0000 12.8
2022-01-17 07:45:00 2022-01-16 23:45:00 -999.0000 36.18 -999.00 1.9000 1.9000 -999.0000 0.6 -999 1.3 100.0 -999.0000 30.7550 -999.0000 12.8
2022-01-17 08:00:00 2022-01-17 00:00:00 -999.0000 36.18 -999.00 1.9000 1.9000 -999.0000 0.6 -999 1.3 100.0 -999.0000 30.7520 -999.0000 12.8
2022-01-17 08:15:00 2022-01-17 00:15:00 -999.0000 36.18 -999.00 1.8000 1.8000 -999.0000 0.6 -999 1.2 100.0 -999.0000 30.7490 -999.0000 12.8
2022-01-17 08:30:00 2022-01-17 00:30:00 -999.0000 36.18 -999.00 1.8000 1.8000 -999.0000 0.6 -999 1.2 100.0 -999.0000 30.7390 -999.0000 12.8
2022-01-17 08:45:00 2022-01-17 00:45:00 -999.0000 36.18 -999.00 1.7000 1.7000 -999.0000 0.4 -999 1.1 100.0 -999.0000 30.7390 -999.0000 12.8
2022-01-17 09:00:00 2022-01-17 01:00:00 -999.0000 36.18 -999.00 1.7000 1.7000 -999.0000 0.4 -999 1.1 100.0 -999.0000 30.7350 -999.0000 12.8
2022-01-17 09:15:00 2022-01-17 01:15:00 -999.0000 36.18 -999.00 1.7000 1.7000 -999.0000 0.4 -999 1.1 100.0 -999.0000 30.7320 -999.0000 12.8
2022-01-17 09:30:00 2022-01-17 01:30:00 -999.0000 36.18 -999.00 1.6000 1.6000 -999.0000 0.4 -999 1.0 100.0 -999.0000 30.7250 -999.0000 12.8
2022-01-17 09:45:00 2022-01-17 01:45:00 -999.0000 36.18 -999.00 1.6000 1.6000 -999.0000 0.4 -999 1.0 100.0 -999.0000 30.7220 -999.0000 12.8
2022-01-17 10:00:00 2022-01-17 02:00:00 -999.0000 36.18 -999.00 1.8000 1.8000 -999.0000 0.4 -999 1.2 100.0 -999.0000 30.7190 -999.0000 12.8
2022-01-17 10:15:00 2022-01-17 02:15:00 -999.0000 36.18 -999.00 1.7000 1.7000 -999.0000 0.4 -999 1.2 100.0 -999.0000 30.7150 -999.0000 12.8
2022-01-17 10:30:00 2022-01-17 02:30:00 -999.0000 36.18 -999.00 1.7000 1.7000 -999.0000 0.4 -999 1.1 100.0 -999.0000 30.7190 -999.0000 12.8
2022-01-17 10:45:00 2022-01-17 02:45:00 -999.0000 36.18 -999.00 1.7000 1.7000 -999.0000 0.4 -999 1.2 100.0 -999.0000 30.7190 -999.0000 12.8
2022-01-17 11:00:00 2022-01-17 03:00:00 -999.0000 36.18 -999.00 1.7000 1.7000 -999.0000 0.4 -999 1.1 100.0 -999.0000 30.7220 -999.0000 12.8
2022-01-17 11:15:00 2022-01-17 03:15:00 -999.0000 36.18 -999.00 1.6000 1.6000 -999.0000 0.4 -999 1.1 100.0 -999.0000 30.7120 -999.0000 12.8
2022-01-17 11:30:00 2022-01-17 03:30:00 -999.0000 36.18 -999.00 1.7000 1.7000 -999.0000 0.6 -999 1.1 100.0 -999.0000 30.7050 -999.0000 12.8
2022-01-17 11:45:00 2022-01-17 03:45:00 -999.0000 36.18 -999.00 1.6000 1.6000 -999.0000 0.4 -999 1.0 100.0 -999.0000 30.7050 -999.0000 12.8
2022-01-17 12:00:00 2022-01-17 04:00:00 -999.0000 36.18 -999.00 1.8000 1.8000 -999.0000 0.4 -999 1.1 100.0 -999.0000 30.6990 -999.0000 12.7
2022-01-17 12:15:00 2022-01-17 04:15:00 -999.0000 36.18 -999.00 1.8000 1.8000 -999.0000 0.4 -999 1.2 100.0 -999.0000 30.7020 -999.0000 12.8
2022-01-17 12:30:00 2022-01-17 04:30:00 -999.0000 36.18 -999.00 1.8000 1.8000 -999.0000 0.4 -999 1.2 100.0 -999.0000 30.7020 -999.0000 12.8
2022-01-17 12:45:00 2022-01-17 04:45:00 -999.0000 36.18 -999.00 1.8000 1.8000 -999.0000 0.4 -999 1.2 100.0 -999.0000 30.6950 -999.0000 12.8
2022-01-17 13:00:00 2022-01-17 05:00:00 -999.0000 36.18 -999.00 1.8000 1.8000 -999.0000 0.4 -999 1.2 100.0 -999.0000 30.6890 -999.0000 12.8
2022-01-17 13:15:00 2022-01-17 05:15:00 -999.0000 36.18 -999.00 1.7000 1.7000 -999.0000 0.4 -999 1.1 100.0 -999.0000 30.6890 -999.0000 12.8
2022-01-17 13:30:00 2022-01-17 05:30:00 -999.0000 36.18 -999.00 1.6000 1.6000 -999.0000 0.6 -999 1.1 100.0 -999.0000 30.6890 -999.0000 12.8
2022-01-17 13:45:00 2022-01-17 05:45:00 -999.0000 36.18 -999.00 1.7000 1.7000 -999.0000 0.4 -999 1.1 100.0 -999.0000 30.6820 -999.0000 12.8
2022-01-17 14:00:00 2022-01-17 06:00:00 -999.0000 36.18 -999.00 1.7000 1.7000 -999.0000 0.4 -999 1.1 100.0 -999.0000 30.6780 -999.0000 12.8
2022-01-17 14:15:00 2022-01-17 06:15:00 -999.0000 36.18 -999.00 1.8000 1.8000 -999.0000 0.4 -999 1.2 100.0 -999.0000 30.6750 -999.0000 12.7
2022-01-17 14:30:00 2022-01-17 06:30:00 -999.0000 36.18 -999.00 1.9000 1.9000 -999.0000 0.4 -999 1.3 100.0 -999.0000 30.6750 -999.0000 12.8
2022-01-17 14:45:00 2022-01-17 06:45:00 -999.0000 36.18 -999.00 1.9000 1.9000 -999.0000 0.4 -999 1.2 100.0 -999.0000 30.6820 -999.0000 12.8
2022-01-17 15:00:00 2022-01-17 07:00:00 -999.0000 36.18 -999.00 1.9000 1.9000 -999.0000 0.6 -999 1.3 100.0 -999.0000 30.6820 -999.0000 12.8
2022-01-17 15:15:00 2022-01-17 07:15:00 -999.0000 36.18 -999.00 2.0000 2.0000 -999.0000 0.6 -999 1.3 100.0 -999.0000 30.6820 -999.0000 12.8
2022-01-17 15:30:00 2022-01-17 07:30:00 -999.0000 36.18 -999.00 1.9000 1.9000 -999.0000 0.6 -999 1.3 100.0 -999.0000 30.6780 -999.0000 12.7
2022-01-17 15:45:00 2022-01-17 07:45:00 -999.0000 36.18 -999.00 1.8000 1.8000 -999.0000 0.4 -999 1.2 100.0 -999.0000 30.6780 -999.0000 12.8
2022-01-17 16:00:00 2022-01-17 08:00:00 -999.0000 36.18 -999.00 1.9000 1.9000 -999.0000 0.4 -999 1.3 100.0 -999.0000 30.6850 -999.0000 12.8
2022-01-17 16:15:00 2022-01-17 08:15:00 -999.0000 36.18 -999.00 1.8000 1.8000 -999.0000 0.6 -999 1.3 100.0 -999.0000 30.6890 -999.0000 12.7
2022-01-17 16:30:00 2022-01-17 08:30:00 -999.0000 36.18 -999.00 1.8000 1.8000 -999.0000 0.6 -999 1.2 100.0 -999.0000 30.6920 -999.0000 12.8
2022-01-17 16:45:00 2022-01-17 08:45:00 -999.0000 36.18 -999.00 1.8000 1.8000 -999.0000 0.6 -999 1.2 100.0 -999.0000 30.6890 -999.0000 12.7
2022-01-17 17:00:00 2022-01-17 09:00:00 -999.0000 36.18 -999.00 1.9000 1.9000 -999.0000 0.6 -999 1.2 100.0 -999.0000 30.6950 -999.0000 12.8
2022-01-17 17:15:00 2022-01-17 09:15:00 -999.0000 36.18 -999.00 2.0000 2.0000 -999.0000 0.6 -999 1.3 100.0 -999.0000 30.7020 -999.0000 12.8
2022-01-17 17:30:00 2022-01-17 09:30:00 -999.0000 36.18 -999.00 2.2000 2.2000 -999.0000 0.9 -999 1.6 100.0 -999.0000 30.7050 -999.0000 12.8
2022-01-17 17:45:00 2022-01-17 09:45:00 -999.0000 36.18 -999.00 2.5000 2.3586 -999.0000 1.1 -999 1.9 99.0 -999.0000 30.7050 -999.0000 12.9
2022-01-17 18:00:00 2022-01-17 10:00:00 -999.0000 36.18 -999.00 2.8000 2.6583 -999.0000 1.4 -999 2.2 99.0 -999.0000 30.7150 -999.0000 12.9
2022-01-17 18:15:00 2022-01-17 10:15:00 -999.0000 36.18 -999.00 2.8000 2.6583 -999.0000 2.1 -999 2.4 99.0 -999.0000 30.7150 -999.0000 12.9
2022-01-17 18:30:00 2022-01-17 10:30:00 -999.0000 36.18 -999.00 2.7000 2.5584 -999.0000 2.5 -999 2.3 99.0 -999.0000 30.7090 -999.0000 12.9
2022-01-17 18:45:00 2022-01-17 10:45:00 -999.0000 36.18 -999.00 3.4000 2.8226 -999.0000 2.8 -999 2.9 96.0 -999.0000 30.6920 -999.0000 13.1
2022-01-17 19:00:00 2022-01-17 11:00:00 -999.0000 36.18 -999.00 3.5000 2.9221 -999.0000 3.4 -999 3.1 96.0 -999.0000 30.6920 -999.0000 13.1
2022-01-17 19:15:00 2022-01-17 11:15:00 -999.0000 36.18 -999.00 3.2000 2.7696 -999.0000 3.9 -999 2.8 97.0 -999.0000 30.6920 -999.0000 13.0
2022-01-17 19:30:00 2022-01-17 11:30:00 -999.0000 36.18 -999.00 3.4000 2.8226 -999.0000 4.3 -999 3.6 96.0 -999.0000 30.6950 -999.0000 13.3
2022-01-17 19:45:00 2022-01-17 11:45:00 -999.0000 36.18 -999.00 4.1000 2.9168 -999.0000 5.0 -999 4.1 92.0 -999.0000 30.6820 -999.0000 13.2
2022-01-17 20:00:00 2022-01-17 12:00:00 -999.0000 36.18 -999.00 5.4000 2.7439 -999.0000 6.2 -999 5.7 83.0 -999.0000 30.6920 -999.0000 14.1
2022-01-17 20:15:00 2022-01-17 12:15:00 -999.0000 36.18 -999.00 6.6000 3.0368 -999.0000 9.0 -999 8.1 78.0 -999.0000 30.6850 -999.0000 13.4
2022-01-17 20:30:00 2022-01-17 12:30:00 -999.0000 36.18 -999.00 5.8000 2.9640 -999.0000 11.5 -999 7.5 82.0 -999.0000 30.6750 -999.0000 13.4
2022-01-17 20:45:00 2022-01-17 12:45:00 -999.0000 36.18 -999.00 5.0000 2.6875 -999.0000 12.7 -999 6.1 85.0 -999.0000 30.6650 -999.0000 13.4
2022-01-17 21:00:00 2022-01-17 13:00:00 -999.0000 36.18 -999.00 6.3000 2.5635 -999.0000 13.2 -999 9.1 77.0 -999.0000 30.6650 -999.0000 14.1
2022-01-17 21:15:00 2022-01-17 13:15:00 -999.0000 36.18 -999.00 7.1000 3.1545 -999.0000 15.3 -999 11.2 76.0 -999.0000 30.6620 -999.0000 14.0
2022-01-17 21:30:00 2022-01-17 13:30:00 -999.0000 36.18 -999.00 7.0000 3.2426 -999.0000 18.0 -999 10.2 77.0 -999.0000 30.6520 -999.0000 13.5
2022-01-17 21:45:00 2022-01-17 13:45:00 -999.0000 36.18 -999.00 6.8000 3.2312 -999.0000 18.5 -999 7.9 78.0 -999.0000 30.6620 -999.0000 13.4
2022-01-17 22:00:00 2022-01-17 14:00:00 -999.0000 36.18 -999.00 7.2000 3.2514 -999.0000 17.4 -999 7.0 76.0 -999.0000 30.6520 -999.0000 13.2
2022-01-17 22:15:00 2022-01-17 14:15:00 -999.0000 36.18 -999.00 5.1000 2.9508 -999.0000 16.0 -999 5.8 86.0 -999.0000 30.6450 -999.0000 13.4
2022-01-17 22:30:00 2022-01-17 14:30:00 -999.0000 36.18 -999.00 5.3000 2.9820 -999.0000 15.0 -999 7.7 85.0 -999.0000 30.6480 -999.0000 13.6
2022-01-17 22:45:00 2022-01-17 14:45:00 -999.0000 36.18 -999.00 4.7000 2.8818 -999.0000 15.3 -999 6.3 88.0 -999.0000 30.6520 -999.0000 13.6
2022-01-17 23:00:00 2022-01-17 15:00:00 -999.0000 36.18 -999.00 4.1000 2.7625 -999.0000 14.5 -999 5.3 91.0 -999.0000 30.6550 -999.0000 13.4
2022-01-17 23:15:00 2022-01-17 15:15:00 -999.0000 36.18 -999.00 3.8000 2.6196 -999.0000 13.7 -999 5.3 92.0 -999.0000 30.6550 -999.0000 13.3
2022-01-17 23:30:00 2022-01-17 15:30:00 -999.0000 36.18 -999.00 3.9000 2.7187 -999.0000 12.9 -999 6.3 92.0 -999.0000 30.6450 -999.0000 13.6
2022-01-17 23:45:00 2022-01-17 15:45:00 -999.0000 36.18 -999.00 3.9000 2.7187 -999.0000 12.7 -999 5.6 92.0 -999.0000 30.6450 -999.0000 13.7
2022-01-18 00:00:00 2022-01-17 16:00:00 -999.0000 36.18 -999.00 3.7000 2.3668 -999.0000 12.5 -999 5.1 91.0 -999.0000 30.6450 -999.0000 13.3
2022-01-18 00:15:00 2022-01-17 16:15:00 -999.0000 36.18 -999.00 3.5000 2.6251 -999.0000 11.8 -999 3.4 94.0 -999.0000 30.6480 -999.0000 13.2
2022-01-18 00:30:00 2022-01-17 16:30:00 -999.0000 36.18 -999.00 2.9000 2.1778 -999.0000 10.4 -999 2.6 95.0 -999.0000 30.6450 -999.0000 13.1
2022-01-18 00:45:00 2022-01-17 16:45:00 -999.0000 36.18 -999.00 2.6000 2.0263 -999.0000 8.8 -999 2.2 96.0 -999.0000 30.6480 -999.0000 13.0
2022-01-18 01:00:00 2022-01-17 17:00:00 -999.0000 36.18 -999.00 2.4000 1.9724 -999.0000 7.1 -999 1.9 97.0 -999.0000 30.6480 -999.0000 13.0
2022-01-18 01:15:00 2022-01-17 17:15:00 -999.0000 36.18 -999.00 2.2000 1.9167 -999.0000 5.8 -999 1.6 98.0 -999.0000 30.6620 -999.0000 12.9
2022-01-18 01:30:00 2022-01-17 17:30:00 -999.0000 36.18 -999.00 2.1000 1.8169 -999.0000 4.8 -999 1.4 98.0 -999.0000 30.6580 -999.0000 12.9
2022-01-18 01:45:00 2022-01-17 17:45:00 -999.0000 36.18 -999.00 1.8000 1.6594 -999.0000 3.7 -999 1.2 99.0 -999.0000 30.6620 -999.0000 12.9
2022-01-18 02:00:00 2022-01-17 18:00:00 -999.0000 36.18 -999.00 1.6000 1.4597 -999.0000 3.2 -999 1.1 99.0 -999.0000 30.6580 -999.0000 12.9
2022-01-18 02:15:00 2022-01-17 18:15:00 -999.0000 36.18 -999.00 1.6000 1.4597 -999.0000 2.5 -999 1.0 99.0 -999.0000 30.6580 -999.0000 12.9
2022-01-18 02:30:00 2022-01-17 18:30:00 -999.0000 36.18 -999.00 1.5000 1.3598 -999.0000 2.1 -999 0.9 99.0 -999.0000 30.6650 -999.0000 12.9
2022-01-18 02:45:00 2022-01-17 18:45:00 -999.0000 36.18 -999.00 1.3000 1.1600 -999.0000 1.6 -999 0.8 99.0 -999.0000 30.6620 -999.0000 12.9
2022-01-18 03:00:00 2022-01-17 19:00:00 -999.0000 36.18 -999.00 1.2000 1.2000 -999.0000 1.3 -999 0.7 100.0 -999.0000 30.6580 -999.0000 12.9
2022-01-18 03:15:00 2022-01-17 19:15:00 -999.0000 36.18 -999.00 1.2000 1.2000 -999.0000 1.1 -999 0.7 100.0 -999.0000 30.6620 -999.0000 12.9
2022-01-18 03:30:00 2022-01-17 19:30:00 -999.0000 36.18 -999.00 1.2000 1.2000 -999.0000 0.9 -999 0.7 100.0 -999.0000 30.6580 -999.0000 12.9
2022-01-18 03:45:00 2022-01-17 19:45:00 -999.0000 36.18 -999.00 1.2000 1.0601 -999.0000 0.7 -999 0.7 99.0 -999.0000 30.6580 -999.0000 12.9
2022-01-18 04:00:00 2022-01-17 20:00:00 -999.0000 36.18 -999.00 1.1000 0.9602 -999.0000 0.6 -999 0.6 99.0 -999.0000 30.6650 -999.0000 12.9
2022-01-18 04:15:00 2022-01-17 20:15:00 -999.0000 36.18 -999.00 1.0000 1.0000 -999.0000 0.4 -999 0.6 100.0 -999.0000 30.6580 -999.0000 12.8
2022-01-18 04:30:00 2022-01-17 20:30:00 -999.0000 36.18 -999.00 1.0000 1.0000 -999.0000 0.4 -999 0.6 100.0 -999.0000 30.6580 -999.0000 12.9
2022-01-18 04:45:00 2022-01-17 20:45:00 -999.0000 36.18 -999.00 1.1000 1.1000 -999.0000 0.2 -999 0.6 100.0 -999.0000 30.6650 -999.0000 12.8
2022-01-18 05:00:00 2022-01-17 21:00:00 -999.0000 36.18 -999.00 1.2000 1.2000 -999.0000 0.2 -999 0.7 100.0 -999.0000 30.6680 -999.0000 12.9
2022-01-18 05:15:00 2022-01-17 21:15:00 -999.0000 36.18 -999.00 1.2000 1.2000 -999.0000 0.2 -999 0.7 100.0 -999.0000 30.6650 -999.0000 12.8
2022-01-18 05:30:00 2022-01-17 21:30:00 -999.0000 36.18 -999.00 1.3000 1.3000 -999.0000 0.2 -999 0.8 100.0 -999.0000 30.6620 -999.0000 12.8
2022-01-18 05:45:00 2022-01-17 21:45:00 -999.0000 36.18 -999.00 1.4000 1.4000 -999.0000 0.2 -999 0.9 100.0 -999.0000 30.6720 -999.0000 12.8
2022-01-18 06:00:00 2022-01-17 22:00:00 -999.0000 36.18 -999.00 1.5000 1.5000 -999.0000 0.2 -999 0.9 100.0 -999.0000 30.6720 -999.0000 12.8
2022-01-18 06:15:00 2022-01-17 22:15:00 -999.0000 36.18 -999.00 1.6000 1.6000 -999.0000 0.2 -999 1.0 100.0 -999.0000 30.6650 -999.0000 12.8
2022-01-18 06:30:00 2022-01-17 22:30:00 -999.0000 36.18 -999.00 1.6000 1.6000 -999.0000 0.4 -999 1.1 100.0 -999.0000 30.6620 -999.0000 12.8
2022-01-18 06:45:00 2022-01-17 22:45:00 -999.0000 36.18 -999.00 1.6000 1.6000 -999.0000 0.4 -999 1.1 100.0 -999.0000 30.6580 -999.0000 12.8
2022-01-18 07:00:00 2022-01-17 23:00:00 -999.0000 36.18 -999.00 1.6000 1.6000 -999.0000 0.4 -999 1.1 100.0 -999.0000 30.6620 -999.0000 12.8
2022-01-18 07:15:00 2022-01-17 23:15:00 -999.0000 36.18 -999.00 1.6000 1.6000 -999.0000 0.4 -999 1.1 100.0 -999.0000 30.6580 -999.0000 12.8
2022-01-18 07:30:00 2022-01-17 23:30:00 -999.0000 36.18 -999.00 1.6000 1.6000 -999.0000 0.4 -999 1.1 100.0 -999.0000 30.6650 -999.0000 12.8
2022-01-18 07:45:00 2022-01-17 23:45:00 -999.0000 36.18 -999.00 1.7000 1.7000 -999.0000 0.6 -999 1.1 100.0 -999.0000 30.6620 -999.0000 12.8
2022-01-18 08:00:00 2022-01-18 00:00:00 -999.0000 36.18 -999.00 1.6000 1.6000 -999.0000 0.4 -999 1.1 100.0 -999.0000 30.6680 -999.0000 12.8
2022-01-18 08:15:00 2022-01-18 00:15:00 -999.0000 36.18 -999.00 1.7000 1.7000 -999.0000 0.6 -999 1.1 100.0 -999.0000 30.6720 -999.0000 12.8
2022-01-18 08:30:00 2022-01-18 00:30:00 -999.0000 36.18 -999.00 1.8000 1.8000 -999.0000 0.6 -999 1.1 100.0 -999.0000 30.6750 -999.0000 12.8
2022-01-18 08:45:00 2022-01-18 00:45:00 -999.0000 36.18 -999.00 1.8000 1.8000 -999.0000 0.6 -999 1.2 100.0 -999.0000 30.6780 -999.0000 12.8
2022-01-18 09:00:00 2022-01-18 01:00:00 -999.0000 36.19 -999.00 1.7000 1.7000 -999.0000 0.6 -999 1.1 100.0 -999.0000 30.6720 -999.0000 12.8
2022-01-18 09:15:00 2022-01-18 01:15:00 -999.0000 36.19 -999.00 1.7000 1.7000 -999.0000 0.6 -999 1.1 100.0 -999.0000 30.6720 -999.0000 12.8
2022-01-18 09:30:00 2022-01-18 01:30:00 -999.0000 36.19 -999.00 1.7000 1.7000 -999.0000 0.7 -999 1.1 100.0 -999.0000 30.6750 -999.0000 12.8
2022-01-18 09:45:00 2022-01-18 01:45:00 -999.0000 36.20 -999.00 1.7000 1.7000 -999.0000 0.6 -999 1.1 100.0 -999.0000 30.6750 -999.0000 12.8
2022-01-18 10:00:00 2022-01-18 02:00:00 -999.0000 36.20 -999.00 1.7000 1.7000 -999.0000 0.4 -999 1.1 100.0 -999.0000 30.6780 -999.0000 12.8
2022-01-18 10:15:00 2022-01-18 02:15:00 -999.0000 36.20 -999.00 1.8000 1.8000 -999.0000 0.6 -999 1.1 100.0 -999.0000 30.6820 -999.0000 12.8
2022-01-18 10:30:00 2022-01-18 02:30:00 -999.0000 36.20 -999.00 1.7000 1.7000 -999.0000 0.6 -999 1.1 100.0 -999.0000 30.6750 -999.0000 12.8
2022-01-18 10:45:00 2022-01-18 02:45:00 -999.0000 36.20 -999.00 1.7000 1.7000 -999.0000 0.7 -999 1.2 100.0 -999.0000 30.6750 -999.0000 12.8
2022-01-18 11:00:00 2022-01-18 03:00:00 -999.0000 36.22 -999.00 1.8000 1.8000 -999.0000 0.7 -999 1.1 100.0 -999.0000 30.6890 -999.0000 12.8
2022-01-18 11:15:00 2022-01-18 03:15:00 -999.0000 36.23 -999.00 1.8000 1.8000 -999.0000 0.7 -999 1.2 100.0 -999.0000 30.6920 -999.0000 12.8
2022-01-18 11:30:00 2022-01-18 03:30:00 -999.0000 36.23 -999.00 1.7000 1.7000 -999.0000 0.7 -999 1.1 100.0 -999.0000 30.6820 -999.0000 12.8
2022-01-18 11:45:00 2022-01-18 03:45:00 -999.0000 36.23 -999.00 1.8000 1.8000 -999.0000 0.6 -999 1.1 100.0 -999.0000 30.6780 -999.0000 12.8
2022-01-18 12:00:00 2022-01-18 04:00:00 -999.0000 36.24 -999.00 1.8000 1.8000 -999.0000 0.6 -999 1.1 100.0 -999.0000 30.6750 -999.0000 12.8
2022-01-18 12:15:00 2022-01-18 04:15:00 -999.0000 36.24 -999.00 1.8000 1.8000 -999.0000 0.6 -999 1.2 100.0 -999.0000 30.6850 -999.0000 12.8
2022-01-18 12:30:00 2022-01-18 04:30:00 -999.0000 36.25 -999.00 1.9000 1.9000 -999.0000 0.7 -999 1.2 100.0 -999.0000 30.6850 -999.0000 12.8
2022-01-18 12:45:00 2022-01-18 04:45:00 -999.0000 36.25 -999.00 1.9000 1.9000 -999.0000 0.7 -999 1.2 100.0 -999.0000 30.6920 -999.0000 12.8
2022-01-18 13:00:00 2022-01-18 05:00:00 -999.0000 36.26 -999.00 1.9000 1.9000 -999.0000 0.6 -999 1.2 100.0 -999.0000 30.7020 -999.0000 12.8
2022-01-18 13:15:00 2022-01-18 05:15:00 -999.0000 36.27 -999.00 1.9000 1.9000 -999.0000 0.7 -999 1.2 100.0 -999.0000 30.7120 -999.0000 12.8
2022-01-18 13:30:00 2022-01-18 05:30:00 -999.0000 36.27 -999.00 1.9000 1.9000 -999.0000 0.7 -999 1.2 100.0 -999.0000 30.7090 -999.0000 12.8
2022-01-18 13:45:00 2022-01-18 05:45:00 -999.0000 36.28 -999.00 1.9000 1.9000 -999.0000 0.7 -999 1.2 100.0 -999.0000 30.7120 -999.0000 12.8
2022-01-18 14:00:00 2022-01-18 06:00:00 -999.0000 36.28 -999.00 1.9000 1.9000 -999.0000 0.6 -999 1.2 100.0 -999.0000 30.7150 -999.0000 12.8
2022-01-18 14:15:00 2022-01-18 06:15:00 -999.0000 36.28 -999.00 1.9000 1.9000 -999.0000 0.7 -999 1.3 100.0 -999.0000 30.7120 -999.0000 12.8
2022-01-18 14:30:00 2022-01-18 06:30:00 -999.0000 36.28 -999.00 1.9000 1.9000 -999.0000 0.7 -999 1.3 100.0 -999.0000 30.7150 -999.0000 12.8
2022-01-18 14:45:00 2022-01-18 06:45:00 -999.0000 36.28 -999.00 1.9000 1.9000 -999.0000 0.7 -999 1.3 100.0 -999.0000 30.7190 -999.0000 12.8
2022-01-18 15:00:00 2022-01-18 07:00:00 -999.0000 36.28 -999.00 1.8000 1.8000 -999.0000 0.7 -999 1.2 100.0 -999.0000 30.7120 -999.0000 12.8
2022-01-18 15:15:00 2022-01-18 07:15:00 -999.0000 36.29 -999.00 1.9000 1.9000 -999.0000 0.7 -999 1.3 100.0 -999.0000 30.7250 -999.0000 12.8
2022-01-18 15:30:00 2022-01-18 07:30:00 -999.0000 36.29 -999.00 1.8000 1.8000 -999.0000 0.7 -999 1.2 100.0 -999.0000 30.7250 -999.0000 12.8
2022-01-18 15:45:00 2022-01-18 07:45:00 -999.0000 36.29 -999.00 1.7000 1.7000 -999.0000 0.6 -999 1.1 100.0 -999.0000 30.7220 -999.0000 12.8
2022-01-18 16:00:00 2022-01-18 08:00:00 -999.0000 36.29 -999.00 1.7000 1.7000 -999.0000 0.6 -999 1.1 100.0 -999.0000 30.7220 -999.0000 12.8
2022-01-18 16:15:00 2022-01-18 08:15:00 -999.0000 36.30 -999.00 1.7000 1.7000 -999.0000 0.6 -999 1.1 100.0 -999.0000 30.7250 -999.0000 12.8
2022-01-18 16:30:00 2022-01-18 08:30:00 -999.0000 36.31 -999.00 1.7000 1.7000 -999.0000 0.7 -999 1.1 100.0 -999.0000 30.7250 -999.0000 12.8
2022-01-18 16:45:00 2022-01-18 08:45:00 -999.0000 36.31 -999.00 1.7000 1.7000 -999.0000 0.6 -999 1.1 100.0 -999.0000 30.7290 -999.0000 12.8
2022-01-18 17:00:00 2022-01-18 09:00:00 -999.0000 36.31 -999.00 1.9000 1.9000 -999.0000 0.6 -999 1.3 100.0 -999.0000 30.7390 -999.0000 12.8
2022-01-18 17:15:00 2022-01-18 09:15:00 -999.0000 36.32 -999.00 2.7000 2.7000 -999.0000 0.7 -999 2.1 100.0 -999.0000 30.7420 -999.0000 12.8
2022-01-18 17:30:00 2022-01-18 09:30:00 -999.0000 36.33 -999.00 3.0000 3.0000 -999.0000 1.1 -999 2.3 100.0 -999.0000 30.7450 -999.0000 12.8
2022-01-18 17:45:00 2022-01-18 09:45:00 -999.0000 36.33 -999.00 3.0000 3.0000 -999.0000 1.1 -999 2.3 100.0 -999.0000 30.7520 -999.0000 12.9
2022-01-18 18:00:00 2022-01-18 10:00:00 -999.0000 36.33 -999.00 3.0000 3.0000 -999.0000 1.4 -999 2.3 100.0 -999.0000 30.7520 -999.0000 12.9
2022-01-18 18:15:00 2022-01-18 10:15:00 -999.0000 36.33 -999.00 3.0000 3.0000 -999.0000 1.8 -999 2.3 100.0 -999.0000 30.7550 -999.0000 12.9
2022-01-18 18:30:00 2022-01-18 10:30:00 -999.0000 36.33 -999.00 2.9000 2.7582 -999.0000 2.0 -999 2.2 99.0 -999.0000 30.7550 -999.0000 12.9
2022-01-18 18:45:00 2022-01-18 10:45:00 -999.0000 36.33 -999.00 2.9000 2.6151 -999.0000 2.1 -999 2.2 98.0 -999.0000 30.7650 -999.0000 13.0
2022-01-18 19:00:00 2022-01-18 11:00:00 -999.0000 36.33 -999.00 3.3000 3.1577 -999.0000 2.5 -999 2.5 99.0 -999.0000 30.7650 -999.0000 13.1
2022-01-18 19:15:00 2022-01-18 11:15:00 -999.0000 36.33 -999.00 3.7000 3.1212 -999.0000 2.8 -999 3.1 96.0 -999.0000 30.7690 -999.0000 13.1
2022-01-18 19:30:00 2022-01-18 11:30:00 -999.0000 36.33 -999.00 3.6000 3.4574 -999.0000 3.6 -999 3.0 99.0 -999.0000 30.7650 -999.0000 13.1
2022-01-18 19:45:00 2022-01-18 11:45:00 -999.0000 36.33 -999.00 3.8000 3.3675 -999.0000 3.9 -999 3.3 97.0 -999.0000 30.7650 -999.0000 13.2
2022-01-18 20:00:00 2022-01-18 12:00:00 -999.0000 36.33 -999.00 4.0000 3.4198 -999.0000 4.3 -999 3.5 96.0 -999.0000 30.7690 -999.0000 13.2
2022-01-18 20:15:00 2022-01-18 12:15:00 -999.0000 36.33 -999.00 4.6000 3.7173 -999.0000 5.0 -999 4.7 94.0 -999.0000 30.7620 -999.0000 13.6
2022-01-18 20:30:00 2022-01-18 12:30:00 -999.0000 36.33 -999.00 4.8000 3.7637 -999.0000 6.4 -999 6.2 93.0 -999.0000 30.7620 -999.0000 14.0
2022-01-18 20:45:00 2022-01-18 12:45:00 -999.0000 36.33 -999.00 5.8000 3.6387 -999.0000 9.2 -999 7.6 86.0 -999.0000 30.7590 -999.0000 14.4
2022-01-18 21:00:00 2022-01-18 13:00:00 -999.0000 36.33 -999.00 5.4000 3.5716 -999.0000 12.2 -999 6.7 88.0 -999.0000 30.7620 -999.0000 13.6
2022-01-18 21:15:00 2022-01-18 13:15:00 -999.0000 36.33 -999.00 4.3000 3.4195 -999.0000 13.0 -999 4.5 94.0 -999.0000 30.7550 -999.0000 13.3
2022-01-18 21:30:00 2022-01-18 13:30:00 -999.0000 36.34 -999.00 4.1000 3.5193 -999.0000 12.5 -999 4.8 96.0 -999.0000 30.7620 -999.0000 13.4
2022-01-18 21:45:00 2022-01-18 13:45:00 -999.0000 36.36 -999.00 4.5000 3.7684 -999.0000 11.6 -999 5.1 95.0 -999.0000 30.7590 -999.0000 13.7
2022-01-18 22:00:00 2022-01-18 14:00:00 -999.0000 36.36 -999.00 4.1000 3.5193 -999.0000 11.3 -999 4.1 96.0 -999.0000 30.7590 -999.0000 13.5
2022-01-18 22:15:00 2022-01-18 14:15:00 -999.0000 36.37 -999.00 4.5000 3.9174 -999.0000 10.4 -999 5.0 96.0 -999.0000 30.7650 -999.0000 13.6
2022-01-18 22:30:00 2022-01-18 14:30:00 -999.0000 36.37 -999.00 4.4000 3.5187 -999.0000 10.4 -999 4.8 94.0 -999.0000 30.7720 -999.0000 13.4
2022-01-18 22:45:00 2022-01-18 14:45:00 -999.0000 36.37 -999.00 4.0000 3.2714 -999.0000 9.9 -999 3.7 95.0 -999.0000 30.7790 -999.0000 13.2
2022-01-18 23:00:00 2022-01-18 15:00:00 -999.0000 36.37 -999.00 3.6000 3.4574 -999.0000 8.8 -999 3.1 99.0 -999.0000 30.7790 -999.0000 13.1
2022-01-18 23:15:00 2022-01-18 15:15:00 -999.0000 36.37 -999.00 3.7000 3.4132 -999.0000 7.8 -999 3.4 98.0 -999.0000 30.7860 -999.0000 13.2
2022-01-18 23:30:00 2022-01-18 15:30:00 -999.0000 36.37 -999.00 3.5000 2.9221 -999.0000 7.1 -999 3.2 96.0 -999.0000 30.7990 -999.0000 13.1
2022-01-18 23:45:00 2022-01-18 15:45:00 -999.0000 36.37 -999.00 3.4000 3.1139 -999.0000 6.4 -999 2.9 98.0 -999.0000 30.7960 -999.0000 13.1
2022-01-19 00:00:00 2022-01-18 16:00:00 -999.0000 36.37 -999.00 3.0000 2.8581 -999.0000 5.8 -999 2.5 99.0 -999.0000 30.7960 -999.0000 13.0
2022-01-19 00:15:00 2022-01-18 16:15:00 -999.0000 36.37 -999.00 2.5000 2.5000 -999.0000 5.1 -999 2.0 100.0 -999.0000 30.8020 -999.0000 13.0
2022-01-19 00:30:00 2022-01-18 16:30:00 -999.0000 36.37 -999.00 2.5000 2.5000 -999.0000 4.4 -999 1.8 100.0 -999.0000 30.8090 -999.0000 12.9
2022-01-19 00:45:00 2022-01-18 16:45:00 -999.0000 36.37 -999.00 2.1000 2.1000 -999.0000 3.9 -999 1.5 100.0 -999.0000 30.8090 -999.0000 12.9
2022-01-19 01:00:00 2022-01-18 17:00:00 -999.0000 36.37 -999.00 1.9000 1.9000 -999.0000 3.4 -999 1.3 100.0 -999.0000 30.8120 -999.0000 12.9
2022-01-19 01:15:00 2022-01-18 17:15:00 -999.0000 36.37 -999.00 1.8000 1.8000 -999.0000 2.8 -999 1.2 100.0 -999.0000 30.8160 -999.0000 12.9
2022-01-19 01:30:00 2022-01-18 17:30:00 -999.0000 36.37 -999.00 1.8000 1.8000 -999.0000 2.5 -999 1.2 100.0 -999.0000 30.8160 -999.0000 12.9
2022-01-19 01:45:00 2022-01-18 17:45:00 -999.0000 36.37 -999.00 1.7000 1.7000 -999.0000 2.0 -999 1.1 100.0 -999.0000 30.8190 -999.0000 12.9
2022-01-19 02:00:00 2022-01-18 18:00:00 -999.0000 36.37 -999.00 1.6000 1.6000 -999.0000 1.6 -999 1.1 100.0 -999.0000 30.8220 -999.0000 12.9
2022-01-19 02:15:00 2022-01-18 18:15:00 -999.0000 36.37 -999.00 1.6000 1.6000 -999.0000 1.4 -999 1.1 100.0 -999.0000 30.8260 -999.0000 12.9
2022-01-19 02:30:00 2022-01-18 18:30:00 -999.0000 36.37 -999.00 1.5000 1.5000 -999.0000 1.3 -999 1.0 100.0 -999.0000 30.8160 -999.0000 12.9
2022-01-19 02:45:00 2022-01-18 18:45:00 -999.0000 36.37 -999.00 1.5000 1.5000 -999.0000 1.1 -999 1.0 100.0 -999.0000 30.8160 -999.0000 12.9
2022-01-19 03:00:00 2022-01-18 19:00:00 -999.0000 36.37 -999.00 1.5000 1.5000 -999.0000 0.9 -999 1.0 100.0 -999.0000 30.8190 -999.0000 12.9
2022-01-19 03:15:00 2022-01-18 19:15:00 -999.0000 36.37 -999.00 1.5000 1.5000 -999.0000 0.7 -999 0.9 100.0 -999.0000 30.8320 -999.0000 12.9
2022-01-19 03:30:00 2022-01-18 19:30:00 -999.0000 36.37 -999.00 1.5000 1.5000 -999.0000 0.7 -999 0.9 100.0 -999.0000 30.8360 -999.0000 12.9
2022-01-19 03:45:00 2022-01-18 19:45:00 -999.0000 36.37 -999.00 1.5000 1.5000 -999.0000 0.6 -999 0.9 100.0 -999.0000 30.8390 -999.0000 12.9
2022-01-19 04:00:00 2022-01-18 20:00:00 -999.0000 36.37 -999.00 1.4000 1.4000 -999.0000 0.6 -999 0.9 100.0 -999.0000 30.8390 -999.0000 12.8
2022-01-19 04:15:00 2022-01-18 20:15:00 -999.0000 36.37 -999.00 1.4000 1.4000 -999.0000 0.6 -999 0.9 100.0 -999.0000 30.8390 -999.0000 12.8
2022-01-19 04:30:00 2022-01-18 20:30:00 -999.0000 36.37 -999.00 1.3000 1.3000 -999.0000 0.4 -999 0.8 100.0 -999.0000 30.8460 -999.0000 12.8
2022-01-19 04:45:00 2022-01-18 20:45:00 -999.0000 36.37 -999.00 1.3000 1.3000 -999.0000 0.4 -999 0.8 100.0 -999.0000 30.8560 -999.0000 12.8
2022-01-19 05:00:00 2022-01-18 21:00:00 -999.0000 36.37 -999.00 1.3000 1.3000 -999.0000 0.2 -999 0.8 100.0 -999.0000 30.8560 -999.0000 12.9
2022-01-19 05:15:00 2022-01-18 21:15:00 -999.0000 36.37 -999.00 1.3000 1.3000 -999.0000 0.4 -999 0.8 100.0 -999.0000 30.8620 -999.0000 12.8
2022-01-19 05:30:00 2022-01-18 21:30:00 -999.0000 36.37 -999.00 1.3000 1.3000 -999.0000 0.2 -999 0.8 100.0 -999.0000 30.8590 -999.0000 12.8
2022-01-19 05:45:00 2022-01-18 21:45:00 -999.0000 36.37 -999.00 1.3000 1.3000 -999.0000 0.2 -999 0.8 100.0 -999.0000 30.8590 -999.0000 12.8
2022-01-19 06:00:00 2022-01-18 22:00:00 -999.0000 36.37 -999.00 1.3000 1.3000 -999.0000 0.2 -999 0.7 100.0 -999.0000 30.8590 -999.0000 12.8
2022-01-19 06:15:00 2022-01-18 22:15:00 -999.0000 36.37 -999.00 1.2000 1.2000 -999.0000 0.2 -999 0.7 100.0 -999.0000 30.8490 -999.0000 12.8
2022-01-19 06:30:00 2022-01-18 22:30:00 -999.0000 36.37 -999.00 1.2000 1.2000 -999.0000 0.0 -999 0.5 100.0 -999.0000 30.8620 -999.0000 12.8
2022-01-19 06:45:00 2022-01-18 22:45:00 -999.0000 36.37 -999.00 1.0000 1.0000 -999.0000 0.0 -999 0.4 100.0 -999.0000 30.8730 -999.0000 12.8
2022-01-19 07:00:00 2022-01-18 23:00:00 -999.0000 36.37 -999.00 0.9000 0.9000 -999.0000 -0.1 -999 0.3 100.0 -999.0000 30.8730 -999.0000 12.8
2022-01-19 07:15:00 2022-01-18 23:15:00 -999.0000 36.37 -999.00 0.8000 0.8000 -999.0000 -0.1 -999 0.3 100.0 -999.0000 30.8760 -999.0000 12.8
2022-01-19 07:30:00 2022-01-18 23:30:00 -999.0000 36.37 -999.00 0.7000 0.7000 -999.0000 -0.1 -999 0.3 100.0 -999.0000 30.8790 -999.0000 12.8
2022-01-19 07:45:00 2022-01-18 23:45:00 -999.0000 36.37 -999.00 0.7000 0.7000 -999.0000 -0.3 -999 0.2 100.0 -999.0000 30.8760 -999.0000 12.8
2022-01-19 08:00:00 2022-01-19 00:00:00 -999.0000 36.37 -999.00 0.5000 0.5000 -999.0000 -0.5 -999 0.0 100.0 -999.0000 30.8620 -999.0000 12.8
2022-01-19 08:15:00 2022-01-19 00:15:00 -999.0000 36.37 -999.00 0.4000 0.4000 -999.0000 -0.5 -999 -0.1 100.0 -999.0000 30.8760 -999.0000 12.8
2022-01-19 08:30:00 2022-01-19 00:30:00 -999.0000 36.37 -999.00 0.2000 0.2000 -999.0000 -0.7 -999 -0.3 100.0 -999.0000 30.8830 -999.0000 12.8
2022-01-19 08:45:00 2022-01-19 00:45:00 -999.0000 36.37 -999.00 0.1000 0.1000 -999.0000 -0.8 -999 -0.4 100.0 -999.0000 30.8860 -999.0000 12.8
2022-01-19 09:00:00 2022-01-19 01:00:00 -999.0000 36.37 -999.00 0.0000 0.0000 -999.0000 -1.0 -999 -0.5 100.0 -999.0000 30.8860 -999.0000 12.8
2022-01-19 09:15:00 2022-01-19 01:15:00 -999.0000 36.37 -999.00 0.0000 0.0000 -999.0000 -1.0 -999 -0.5 100.0 -999.0000 30.8930 -999.0000 12.8
2022-01-19 09:30:00 2022-01-19 01:30:00 -999.0000 36.37 -999.00 0.0000 0.0000 -999.0000 -1.2 -999 -0.5 100.0 -999.0000 30.8890 -999.0000 12.8
2022-01-19 09:45:00 2022-01-19 01:45:00 -999.0000 36.37 -999.00 0.0000 0.0000 -999.0000 -1.0 -999 -0.5 100.0 -999.0000 30.8890 -999.0000 12.8
2022-01-19 10:00:00 2022-01-19 02:00:00 -999.0000 36.37 -999.00 0.1000 0.1000 -999.0000 -1.2 -999 -0.4 100.0 -999.0000 30.8930 -999.0000 12.8
2022-01-19 10:15:00 2022-01-19 02:15:00 -999.0000 36.37 -999.00 0.2000 0.2000 -999.0000 -1.2 -999 -0.3 100.0 -999.0000 30.8960 -999.0000 12.8
2022-01-19 10:30:00 2022-01-19 02:30:00 -999.0000 36.37 -999.00 0.3000 0.3000 -999.0000 -1.2 -999 -0.2 100.0 -999.0000 30.8990 -999.0000 12.8
2022-01-19 10:45:00 2022-01-19 02:45:00 -999.0000 36.37 -999.00 0.3000 0.3000 -999.0000 -1.0 -999 -0.2 100.0 -999.0000 30.8990 -999.0000 12.8
2022-01-19 11:00:00 2022-01-19 03:00:00 -999.0000 36.37 -999.00 0.4000 0.4000 -999.0000 -1.2 -999 -0.1 100.0 -999.0000 30.9130 -999.0000 12.8
2022-01-19 11:15:00 2022-01-19 03:15:00 -999.0000 36.37 -999.00 0.4000 0.4000 -999.0000 -1.0 -999 -0.1 100.0 -999.0000 30.9160 -999.0000 12.8
2022-01-19 11:30:00 2022-01-19 03:30:00 -999.0000 36.37 -999.00 0.5000 0.5000 -999.0000 -1.0 -999 0.0 100.0 -999.0000 30.9230 -999.0000 12.8
2022-01-19 11:45:00 2022-01-19 03:45:00 -999.0000 36.37 -999.00 0.6000 0.6000 -999.0000 -0.8 -999 0.1 100.0 -999.0000 30.9190 -999.0000 12.8
2022-01-19 12:00:00 2022-01-19 04:00:00 -999.0000 36.37 -999.00 0.6000 0.6000 -999.0000 -0.8 -999 0.1 100.0 -999.0000 30.9190 -999.0000 12.8
2022-01-19 12:15:00 2022-01-19 04:15:00 -999.0000 36.37 -999.00 0.6000 0.6000 -999.0000 -0.7 -999 0.1 100.0 -999.0000 30.9190 -999.0000 12.8
2022-01-19 12:30:00 2022-01-19 04:30:00 -999.0000 36.37 -999.00 0.6000 0.6000 -999.0000 -0.7 -999 0.2 100.0 -999.0000 30.9190 -999.0000 12.8
2022-01-19 12:45:00 2022-01-19 04:45:00 -999.0000 36.37 -999.00 0.6000 0.6000 -999.0000 -0.7 -999 0.2 100.0 -999.0000 30.9090 -999.0000 12.8
2022-01-19 13:00:00 2022-01-19 05:00:00 -999.0000 36.37 -999.00 0.7000 0.7000 -999.0000 -0.7 -999 0.2 100.0 -999.0000 30.9130 -999.0000 12.8
2022-01-19 13:15:00 2022-01-19 05:15:00 -999.0000 36.37 -999.00 0.7000 0.7000 -999.0000 -0.5 -999 0.2 100.0 -999.0000 30.9130 -999.0000 12.8
2022-01-19 13:30:00 2022-01-19 05:30:00 -999.0000 36.37 -999.00 0.8000 0.8000 -999.0000 -0.5 -999 0.3 100.0 -999.0000 30.9160 -999.0000 12.8
2022-01-19 13:45:00 2022-01-19 05:45:00 -999.0000 36.37 -999.00 0.8000 0.8000 -999.0000 -0.5 -999 0.4 100.0 -999.0000 30.9160 -999.0000 12.8
2022-01-19 14:00:00 2022-01-19 06:00:00 -999.0000 36.37 -999.00 0.9000 0.9000 -999.0000 -0.5 -999 0.4 100.0 -999.0000 30.9190 -999.0000 12.8
2022-01-19 14:15:00 2022-01-19 06:15:00 -999.0000 36.37 -999.00 0.8000 0.8000 -999.0000 -0.5 -999 0.3 100.0 -999.0000 30.9260 -999.0000 12.8
2022-01-19 14:30:00 2022-01-19 06:30:00 -999.0000 36.37 -999.00 0.9000 0.9000 -999.0000 -0.3 -999 0.4 100.0 -999.0000 30.9260 -999.0000 12.8
2022-01-19 14:45:00 2022-01-19 06:45:00 -999.0000 36.37 -999.00 0.9000 0.9000 -999.0000 -0.5 -999 0.4 100.0 -999.0000 30.9290 -999.0000 12.8
2022-01-19 15:00:00 2022-01-19 07:00:00 -999.0000 36.37 -999.00 0.9000 0.9000 -999.0000 -0.5 -999 0.4 100.0 -999.0000 30.9290 -999.0000 12.8
2022-01-19 15:15:00 2022-01-19 07:15:00 -999.0000 36.37 -999.00 1.0000 1.0000 -999.0000 -0.3 -999 0.4 100.0 -999.0000 30.9430 -999.0000 12.8
2022-01-19 15:30:00 2022-01-19 07:30:00 -999.0000 36.37 -999.00 0.9000 0.9000 -999.0000 -0.3 -999 0.4 100.0 -999.0000 30.9430 -999.0000 12.8
2022-01-19 15:45:00 2022-01-19 07:45:00 -999.0000 36.37 -999.00 0.9000 0.9000 -999.0000 -0.3 -999 0.4 100.0 -999.0000 30.9430 -999.0000 12.8
2022-01-19 16:00:00 2022-01-19 08:00:00 -999.0000 36.37 -999.00 1.0000 1.0000 -999.0000 -0.3 -999 0.5 100.0 -999.0000 30.9430 -999.0000 12.8
2022-01-19 16:15:00 2022-01-19 08:15:00 -999.0000 36.37 -999.00 1.0000 1.0000 -999.0000 -0.3 -999 0.6 100.0 -999.0000 30.9460 -999.0000 12.8
2022-01-19 16:30:00 2022-01-19 08:30:00 -999.0000 36.37 -999.00 1.2000 1.2000 -999.0000 -0.1 -999 0.7 100.0 -999.0000 30.9560 -999.0000 12.8
2022-01-19 16:45:00 2022-01-19 08:45:00 -999.0000 36.37 -999.00 1.4000 1.4000 -999.0000 -0.1 -999 0.8 100.0 -999.0000 30.9560 -999.0000 12.8
2022-01-19 17:00:00 2022-01-19 09:00:00 -999.0000 36.37 -999.00 1.5000 1.5000 -999.0000 -0.1 -999 1.0 100.0 -999.0000 30.9630 -999.0000 12.8
2022-01-19 17:15:00 2022-01-19 09:15:00 -999.0000 36.37 -999.00 1.6000 1.6000 -999.0000 0.2 -999 1.1 100.0 -999.0000 30.9700 -999.0000 12.8
2022-01-19 17:30:00 2022-01-19 09:30:00 -999.0000 36.37 -999.00 1.9000 1.9000 -999.0000 0.4 -999 1.3 100.0 -999.0000 30.9730 -999.0000 12.9
2022-01-19 17:45:00 2022-01-19 09:45:00 -999.0000 36.37 -999.00 2.0000 2.0000 -999.0000 0.7 -999 1.5 100.0 -999.0000 30.9700 -999.0000 12.9
2022-01-19 18:00:00 2022-01-19 10:00:00 -999.0000 36.37 -999.00 2.3000 2.3000 -999.0000 0.9 -999 1.7 100.0 -999.0000 30.9700 -999.0000 12.9
2022-01-19 18:15:00 2022-01-19 10:15:00 -999.0000 36.37 -999.00 2.4000 2.4000 -999.0000 1.4 -999 1.8 100.0 -999.0000 30.9730 -999.0000 12.9
2022-01-19 18:30:00 2022-01-19 10:30:00 -999.0000 36.37 -999.00 2.5000 2.5000 -999.0000 1.8 -999 1.9 100.0 -999.0000 30.9800 -999.0000 13.0
2022-01-19 18:45:00 2022-01-19 10:45:00 -999.0000 36.38 -999.00 2.6000 2.6000 -999.0000 2.0 -999 2.1 100.0 -999.0000 30.9760 -999.0000 13.0
2022-01-19 19:00:00 2022-01-19 11:00:00 -999.0000 36.38 -999.00 2.6000 2.6000 -999.0000 2.1 -999 2.1 100.0 -999.0000 30.9800 -999.0000 13.0
2022-01-19 19:15:00 2022-01-19 11:15:00 -999.0000 36.38 -999.00 2.5000 2.5000 -999.0000 2.5 -999 2.0 100.0 -999.0000 30.9730 -999.0000 13.0
2022-01-19 19:30:00 2022-01-19 11:30:00 -999.0000 36.38 -999.00 2.7000 2.7000 -999.0000 2.7 -999 2.0 100.0 -999.0000 30.9760 -999.0000 13.0
2022-01-19 19:45:00 2022-01-19 11:45:00 -999.0000 36.38 -999.00 2.5000 2.5000 -999.0000 2.7 -999 1.9 100.0 -999.0000 30.9760 -999.0000 13.0
2022-01-19 20:00:00 2022-01-19 12:00:00 -999.0000 36.38 -999.00 2.4000 2.4000 -999.0000 2.7 -999 1.9 100.0 -999.0000 30.9730 -999.0000 13.0
2022-01-19 20:15:00 2022-01-19 12:15:00 -999.0000 36.38 -999.00 2.5000 2.5000 -999.0000 2.7 -999 1.9 100.0 -999.0000 30.9800 -999.0000 12.9
2022-01-19 20:30:00 2022-01-19 12:30:00 -999.0000 36.38 -999.00 2.5000 2.5000 -999.0000 2.7 -999 1.9 100.0 -999.0000 30.9730 -999.0000 13.0
2022-01-19 20:45:00 2022-01-19 12:45:00 -999.0000 36.38 -999.00 2.8000 2.8000 -999.0000 2.7 -999 2.2 100.0 -999.0000 30.9630 -999.0000 13.0
2022-01-19 21:00:00 2022-01-19 13:00:00 -999.0000 36.38 -999.00 2.9000 2.9000 -999.0000 2.5 -999 2.2 100.0 -999.0000 30.9590 -999.0000 13.0
2022-01-19 21:15:00 2022-01-19 13:15:00 -999.0000 36.38 -999.00 3.1000 3.1000 -999.0000 2.7 -999 2.3 100.0 -999.0000 30.9560 -999.0000 13.0
2022-01-19 21:30:00 2022-01-19 13:30:00 -999.0000 36.39 -999.00 3.3000 3.3000 -999.0000 2.8 -999 2.5 100.0 -999.0000 30.9560 -999.0000 13.0
2022-01-19 21:45:00 2022-01-19 13:45:00 -999.0000 36.40 -999.00 3.0000 3.0000 -999.0000 2.8 -999 2.3 100.0 -999.0000 30.9560 -999.0000 13.0
2022-01-19 22:00:00 2022-01-19 14:00:00 -999.0000 36.40 -999.00 2.7000 2.7000 -999.0000 2.8 -999 2.1 100.0 -999.0000 30.9530 -999.0000 13.0
2022-01-19 22:15:00 2022-01-19 14:15:00 -999.0000 36.41 -999.00 2.6000 2.6000 -999.0000 2.8 -999 2.0 100.0 -999.0000 30.9560 -999.0000 13.0
2022-01-19 22:30:00 2022-01-19 14:30:00 -999.0000 36.42 -999.00 2.5000 2.5000 -999.0000 2.8 -999 1.9 100.0 -999.0000 30.9560 -999.0000 13.0
2022-01-19 22:45:00 2022-01-19 14:45:00 -999.0000 36.42 -999.00 2.5000 2.5000 -999.0000 2.7 -999 1.9 100.0 -999.0000 30.9560 -999.0000 13.0
2022-01-19 23:00:00 2022-01-19 15:00:00 -999.0000 36.43 -999.00 2.5000 2.5000 -999.0000 2.7 -999 1.9 100.0 -999.0000 30.9590 -999.0000 13.0
2022-01-19 23:15:00 2022-01-19 15:15:00 -999.0000 36.43 -999.00 2.4000 2.4000 -999.0000 2.5 -999 1.8 100.0 -999.0000 30.9590 -999.0000 12.9
2022-01-19 23:30:00 2022-01-19 15:30:00 -999.0000 36.43 -999.00 2.3000 2.3000 -999.0000 2.5 -999 1.7 100.0 -999.0000 30.9590 -999.0000 12.9
2022-01-19 23:45:00 2022-01-19 15:45:00 -999.0000 36.44 -999.00 2.3000 2.3000 -999.0000 2.3 -999 1.7 100.0 -999.0000 30.9590 -999.0000 12.9
2022-01-20 00:00:00 2022-01-19 16:00:00 -999.0000 36.44 -999.00 2.2000 2.2000 -999.0000 2.1 -999 1.7 100.0 -999.0000 30.9490 -999.0000 12.9
2022-01-20 00:15:00 2022-01-19 16:15:00 -999.0000 36.44 -999.00 2.1000 2.1000 -999.0000 2.0 -999 1.6 100.0 -999.0000 30.9560 -999.0000 12.8
2022-01-20 00:30:00 2022-01-19 16:30:00 -999.0000 36.44 -999.00 2.1000 2.1000 -999.0000 2.0 -999 1.6 100.0 -999.0000 30.9530 -999.0000 12.8
2022-01-20 00:45:00 2022-01-19 16:45:00 -999.0000 36.44 -999.00 2.1000 2.1000 -999.0000 1.6 -999 1.6 100.0 -999.0000 30.9560 -999.0000 12.8
2022-01-20 01:00:00 2022-01-19 17:00:00 -999.0000 36.44 -999.00 2.1000 2.1000 -999.0000 1.4 -999 1.6 100.0 -999.0000 30.9590 -999.0000 12.8
2022-01-20 01:15:00 2022-01-19 17:15:00 -999.0000 36.45 -999.00 2.1000 2.1000 -999.0000 1.4 -999 1.6 100.0 -999.0000 30.9630 -999.0000 12.8
2022-01-20 01:30:00 2022-01-19 17:30:00 -999.0000 36.45 -999.00 2.1000 2.1000 -999.0000 1.4 -999 1.6 100.0 -999.0000 30.9590 -999.0000 12.8
2022-01-20 01:45:00 2022-01-19 17:45:00 -999.0000 36.45 -999.00 2.1000 2.1000 -999.0000 1.4 -999 1.5 100.0 -999.0000 30.9730 -999.0000 12.8
2022-01-20 02:00:00 2022-01-19 18:00:00 -999.0000 36.45 -999.00 2.1000 2.1000 -999.0000 1.3 -999 1.5 100.0 -999.0000 30.9660 -999.0000 12.8
2022-01-20 02:15:00 2022-01-19 18:15:00 -999.0000 36.46 -999.00 2.0000 2.0000 -999.0000 1.3 -999 1.5 100.0 -999.0000 30.9630 -999.0000 12.8
2022-01-20 02:30:00 2022-01-19 18:30:00 -999.0000 36.46 -999.00 2.0000 2.0000 -999.0000 1.1 -999 1.5 100.0 -999.0000 30.9630 -999.0000 12.8
2022-01-20 02:45:00 2022-01-19 18:45:00 -999.0000 36.47 -999.00 1.9000 1.9000 -999.0000 1.1 -999 1.4 100.0 -999.0000 30.9560 -999.0000 12.8
2022-01-20 03:00:00 2022-01-19 19:00:00 -999.0000 36.47 -999.00 2.0000 2.0000 -999.0000 1.1 -999 1.5 100.0 -999.0000 30.9590 -999.0000 12.8
2022-01-20 03:15:00 2022-01-19 19:15:00 -999.0000 36.47 -999.00 2.0000 2.0000 -999.0000 1.1 -999 1.5 100.0 -999.0000 30.9590 -999.0000 12.8
2022-01-20 03:30:00 2022-01-19 19:30:00 -999.0000 36.47 -999.00 2.1000 2.1000 -999.0000 1.1 -999 1.6 100.0 -999.0000 30.9560 -999.0000 12.8
2022-01-20 03:45:00 2022-01-19 19:45:00 -999.0000 36.47 -999.00 2.2000 2.2000 -999.0000 1.1 -999 1.6 100.0 -999.0000 30.9590 -999.0000 12.8
2022-01-20 04:00:00 2022-01-19 20:00:00 -999.0000 36.47 -999.00 2.1000 2.1000 -999.0000 0.9 -999 1.6 100.0 -999.0000 30.9590 -999.0000 12.8
2022-01-20 04:15:00 2022-01-19 20:15:00 -999.0000 36.47 -999.00 2.1000 2.1000 -999.0000 1.1 -999 1.6 100.0 -999.0000 30.9590 -999.0000 12.8
2022-01-20 04:30:00 2022-01-19 20:30:00 -999.0000 36.48 -999.00 2.1000 2.1000 -999.0000 1.1 -999 1.6 100.0 -999.0000 30.9560 -999.0000 12.8
2022-01-20 04:45:00 2022-01-19 20:45:00 -999.0000 36.48 -999.00 2.2000 2.2000 -999.0000 0.9 -999 1.7 100.0 -999.0000 30.9530 -999.0000 12.8
2022-01-20 05:00:00 2022-01-19 21:00:00 -999.0000 36.48 -999.00 2.1000 2.1000 -999.0000 1.1 -999 1.6 100.0 -999.0000 30.9560 -999.0000 12.8
2022-01-20 05:15:00 2022-01-19 21:15:00 -999.0000 36.48 -999.00 2.2000 2.2000 -999.0000 1.1 -999 1.7 100.0 -999.0000 30.9530 -999.0000 12.8
2022-01-20 05:30:00 2022-01-19 21:30:00 -999.0000 36.48 -999.00 2.2000 2.2000 -999.0000 1.1 -999 1.7 100.0 -999.0000 30.9560 -999.0000 12.8
2022-01-20 05:45:00 2022-01-19 21:45:00 -999.0000 36.48 -999.00 2.2000 2.2000 -999.0000 1.1 -999 1.7 100.0 -999.0000 30.9490 -999.0000 12.8
2022-01-20 06:00:00 2022-01-19 22:00:00 -999.0000 36.49 -999.00 2.0000 2.0000 -999.0000 1.1 -999 1.6 100.0 -999.0000 30.9560 -999.0000 12.8
2022-01-20 06:15:00 2022-01-19 22:15:00 -999.0000 36.50 -999.00 2.1000 2.1000 -999.0000 1.1 -999 1.6 100.0 -999.0000 30.9590 -999.0000 12.8
2022-01-20 06:30:00 2022-01-19 22:30:00 -999.0000 36.51 -999.00 2.2000 2.2000 -999.0000 1.3 -999 1.7 100.0 -999.0000 30.9590 -999.0000 12.8
2022-01-20 06:45:00 2022-01-19 22:45:00 -999.0000 36.52 -999.00 2.3000 2.3000 -999.0000 1.1 -999 1.8 100.0 -999.0000 30.9590 -999.0000 12.8
2022-01-20 07:00:00 2022-01-19 23:00:00 -999.0000 36.54 -999.00 2.4000 2.4000 -999.0000 1.1 -999 1.9 100.0 -999.0000 30.9590 -999.0000 12.8
2022-01-20 07:15:00 2022-01-19 23:15:00 -999.0000 36.56 -999.00 2.3000 2.3000 -999.0000 1.3 -999 1.8 100.0 -999.0000 30.9590 -999.0000 12.8
2022-01-20 07:30:00 2022-01-19 23:30:00 -999.0000 36.58 -999.00 2.2000 2.2000 -999.0000 1.3 -999 1.7 100.0 -999.0000 30.9490 -999.0000 12.8
2022-01-20 07:45:00 2022-01-19 23:45:00 -999.0000 36.60 -999.00 2.3000 2.3000 -999.0000 1.3 -999 1.7 100.0 -999.0000 30.9490 -999.0000 12.8
2022-01-20 08:00:00 2022-01-20 00:00:00 -999.0000 36.61 -999.00 2.3000 2.3000 -999.0000 1.1 -999 1.8 100.0 -999.0000 30.9430 -999.0000 12.8
2022-01-20 08:15:00 2022-01-20 00:15:00 -999.0000 36.62 -999.00 2.2000 2.2000 -999.0000 1.3 -999 1.8 100.0 -999.0000 30.9390 -999.0000 12.8
2022-01-20 08:30:00 2022-01-20 00:30:00 -999.0000 36.62 -999.00 2.2000 2.2000 -999.0000 1.3 -999 1.7 100.0 -999.0000 30.9430 -999.0000 12.8
2022-01-20 08:45:00 2022-01-20 00:45:00 -999.0000 36.62 -999.00 2.2000 2.2000 -999.0000 1.4 -999 1.7 100.0 -999.0000 30.9490 -999.0000 12.8
2022-01-20 09:00:00 2022-01-20 01:00:00 -999.0000 36.62 -999.00 2.2000 2.2000 -999.0000 1.3 -999 1.8 100.0 -999.0000 30.9530 -999.0000 12.8
2022-01-20 09:15:00 2022-01-20 01:15:00 -999.0000 36.62 -999.00 2.3000 2.3000 -999.0000 1.3 -999 1.8 100.0 -999.0000 30.9430 -999.0000 12.8
2022-01-20 09:30:00 2022-01-20 01:30:00 -999.0000 36.67 -999.00 2.4000 2.4000 -999.0000 1.3 -999 1.9 100.0 -999.0000 30.9430 -999.0000 12.8
2022-01-20 09:45:00 2022-01-20 01:45:00 -999.0000 36.72 -999.00 2.6000 2.6000 -999.0000 1.3 -999 2.1 100.0 -999.0000 30.9490 -999.0000 12.8
2022-01-20 10:00:00 2022-01-20 02:00:00 -999.0000 36.75 -999.00 2.6000 2.6000 -999.0000 1.3 -999 2.1 100.0 -999.0000 30.9460 -999.0000 12.8
2022-01-20 10:15:00 2022-01-20 02:15:00 -999.0000 36.78 -999.00 2.4000 2.4000 -999.0000 1.3 -999 2.0 100.0 -999.0000 30.9390 -999.0000 12.8
2022-01-20 10:30:00 2022-01-20 02:30:00 -999.0000 36.82 -999.00 2.5000 2.5000 -999.0000 1.4 -999 2.0 100.0 -999.0000 30.9390 -999.0000 12.8
2022-01-20 10:45:00 2022-01-20 02:45:00 -999.0000 36.86 -999.00 2.4000 2.4000 -999.0000 1.4 -999 2.0 100.0 -999.0000 30.9360 -999.0000 12.8
2022-01-20 11:00:00 2022-01-20 03:00:00 -999.0000 36.90 -999.00 2.5000 2.5000 -999.0000 1.6 -999 2.0 100.0 -999.0000 30.9360 -999.0000 12.8
2022-01-20 11:15:00 2022-01-20 03:15:00 -999.0000 36.93 -999.00 2.4000 2.4000 -999.0000 1.4 -999 1.9 100.0 -999.0000 30.9360 -999.0000 12.8
2022-01-20 11:30:00 2022-01-20 03:30:00 -999.0000 36.96 -999.00 2.5000 2.5000 -999.0000 1.4 -999 1.9 100.0 -999.0000 30.9360 -999.0000 12.8
2022-01-20 11:45:00 2022-01-20 03:45:00 -999.0000 36.99 -999.00 2.4000 2.4000 -999.0000 1.4 -999 1.9 100.0 -999.0000 30.9260 -999.0000 12.8
2022-01-20 12:00:00 2022-01-20 04:00:00 -999.0000 37.01 -999.00 2.7000 2.7000 -999.0000 1.4 -999 2.1 100.0 -999.0000 30.9190 -999.0000 12.8
2022-01-20 12:15:00 2022-01-20 04:15:00 -999.0000 37.05 -999.00 2.8000 2.8000 -999.0000 1.6 -999 2.2 100.0 -999.0000 30.9160 -999.0000 12.8
2022-01-20 12:30:00 2022-01-20 04:30:00 -999.0000 37.08 -999.00 2.8000 2.8000 -999.0000 1.6 -999 2.2 100.0 -999.0000 30.9130 -999.0000 12.8
2022-01-20 12:45:00 2022-01-20 04:45:00 -999.0000 37.09 -999.00 3.0000 3.0000 -999.0000 1.6 -999 2.3 100.0 -999.0000 30.9160 -999.0000 12.7
2022-01-20 13:00:00 2022-01-20 05:00:00 -999.0000 37.11 -999.00 2.7000 2.7000 -999.0000 1.6 -999 2.2 100.0 -999.0000 30.9190 -999.0000 12.8
2022-01-20 13:15:00 2022-01-20 05:15:00 -999.0000 37.14 -999.00 2.9000 2.9000 -999.0000 1.6 -999 2.3 100.0 -999.0000 30.9090 -999.0000 12.7
2022-01-20 13:30:00 2022-01-20 05:30:00 -999.0000 37.17 -999.00 2.9000 2.9000 -999.0000 1.8 -999 2.3 100.0 -999.0000 30.9130 -999.0000 12.8
2022-01-20 13:45:00 2022-01-20 05:45:00 -999.0000 37.19 -999.00 3.3000 3.3000 -999.0000 1.8 -999 2.7 100.0 -999.0000 30.9130 -999.0000 12.8
2022-01-20 14:00:00 2022-01-20 06:00:00 -999.0000 37.22 -999.00 3.5000 3.5000 -999.0000 1.8 -999 2.7 100.0 -999.0000 30.9030 -999.0000 12.8
2022-01-20 14:15:00 2022-01-20 06:15:00 -999.0000 37.24 -999.00 3.1000 3.1000 -999.0000 2.1 -999 2.4 100.0 -999.0000 30.8990 -999.0000 12.7
2022-01-20 14:30:00 2022-01-20 06:30:00 -999.0000 37.24 -999.00 3.0000 3.0000 -999.0000 2.1 -999 2.3 100.0 -999.0000 30.8890 -999.0000 12.8
2022-01-20 14:45:00 2022-01-20 06:45:00 -999.0000 37.28 -999.00 2.9000 2.9000 -999.0000 2.0 -999 2.2 100.0 -999.0000 30.8830 -999.0000 12.8
2022-01-20 15:00:00 2022-01-20 07:00:00 -999.0000 37.33 -999.00 2.9000 2.9000 -999.0000 2.0 -999 2.3 100.0 -999.0000 30.8860 -999.0000 12.8
2022-01-20 15:15:00 2022-01-20 07:15:00 -999.0000 37.38 -999.00 3.6000 3.6000 -999.0000 2.0 -999 2.7 100.0 -999.0000 30.8790 -999.0000 12.7
2022-01-20 15:30:00 2022-01-20 07:30:00 -999.0000 37.42 -999.00 3.3000 3.3000 -999.0000 2.1 -999 2.9 100.0 -999.0000 30.8860 -999.0000 12.8
2022-01-20 15:45:00 2022-01-20 07:45:00 -999.0000 37.50 -999.00 3.4000 3.4000 -999.0000 2.1 -999 2.7 100.0 -999.0000 30.8990 -999.0000 12.8
2022-01-20 16:00:00 2022-01-20 08:00:00 -999.0000 37.60 -999.00 4.8000 4.8000 -999.0000 2.1 -999 3.3 100.0 -999.0000 30.9030 -999.0000 12.8
2022-01-20 16:15:00 2022-01-20 08:15:00 -999.0000 37.67 -999.00 5.1000 5.1000 -999.0000 2.5 -999 4.3 100.0 -999.0000 30.9030 -999.0000 12.7
2022-01-20 16:30:00 2022-01-20 08:30:00 -999.0000 37.67 -999.00 3.9000 3.9000 -999.0000 2.8 -999 3.3 100.0 -999.0000 30.8930 -999.0000 12.8
2022-01-20 16:45:00 2022-01-20 08:45:00 -999.0000 37.67 -999.00 3.4000 3.4000 -999.0000 2.8 -999 2.7 100.0 -999.0000 30.8990 -999.0000 12.8
2022-01-20 17:00:00 2022-01-20 09:00:00 -999.0000 37.68 -999.00 3.8000 3.8000 -999.0000 2.7 -999 2.9 100.0 -999.0000 30.8990 -999.0000 12.8
2022-01-20 17:15:00 2022-01-20 09:15:00 -999.0000 37.69 -999.00 4.1000 4.1000 -999.0000 2.7 -999 3.0 100.0 -999.0000 30.8930 -999.0000 12.8
2022-01-20 17:30:00 2022-01-20 09:30:00 -999.0000 37.69 -999.00 4.0000 4.0000 -999.0000 2.8 -999 3.2 100.0 -999.0000 30.8930 -999.0000 12.8
2022-01-20 17:45:00 2022-01-20 09:45:00 -999.0000 37.69 -999.00 4.2000 4.2000 -999.0000 2.8 -999 3.1 100.0 -999.0000 30.8930 -999.0000 12.8
2022-01-20 18:00:00 2022-01-20 10:00:00 -999.0000 37.69 -999.00 3.6000 3.6000 -999.0000 2.8 -999 2.8 100.0 -999.0000 30.8890 -999.0000 12.8
2022-01-20 18:15:00 2022-01-20 10:15:00 -999.0000 37.70 -999.00 4.1000 4.1000 -999.0000 2.8 -999 3.0 100.0 -999.0000 30.8860 -999.0000 12.8
2022-01-20 18:30:00 2022-01-20 10:30:00 -999.0000 37.71 -999.00 4.9000 4.9000 -999.0000 2.8 -999 3.8 100.0 -999.0000 30.9030 -999.0000 12.8
2022-01-20 18:45:00 2022-01-20 10:45:00 -999.0000 37.71 -999.00 5.0000 5.0000 -999.0000 3.0 -999 3.9 100.0 -999.0000 30.9060 -999.0000 12.8
2022-01-20 19:00:00 2022-01-20 11:00:00 -999.0000 37.72 -999.00 5.2000 5.2000 -999.0000 3.4 -999 4.2 100.0 -999.0000 30.9130 -999.0000 12.8
2022-01-20 19:15:00 2022-01-20 11:15:00 -999.0000 37.73 -999.00 5.4000 5.4000 -999.0000 3.6 -999 4.6 100.0 -999.0000 30.9160 -999.0000 12.8
2022-01-20 19:30:00 2022-01-20 11:30:00 -999.0000 37.75 -999.00 5.8000 5.8000 -999.0000 3.9 -999 5.2 100.0 -999.0000 30.9160 -999.0000 12.9
2022-01-20 19:45:00 2022-01-20 11:45:00 -999.0000 37.76 -999.00 5.8000 5.8000 -999.0000 4.1 -999 5.1 100.0 -999.0000 30.9190 -999.0000 13.0
2022-01-20 20:00:00 2022-01-20 12:00:00 -999.0000 37.76 -999.00 6.1000 6.1000 -999.0000 4.6 -999 5.5 100.0 -999.0000 30.9260 -999.0000 13.1
2022-01-20 20:15:00 2022-01-20 12:15:00 -999.0000 37.77 -999.00 6.7000 6.7000 -999.0000 5.1 -999 6.3 100.0 -999.0000 30.9160 -999.0000 13.3
2022-01-20 20:30:00 2022-01-20 12:30:00 -999.0000 37.77 -999.00 6.8000 6.5060 -999.0000 6.0 -999 7.0 98.0 -999.0000 30.9230 -999.0000 13.6
2022-01-20 20:45:00 2022-01-20 12:45:00 -999.0000 37.79 -999.00 7.0000 7.0000 -999.0000 6.7 -999 7.5 100.0 -999.0000 30.9290 -999.0000 13.9
2022-01-20 21:00:00 2022-01-20 13:00:00 -999.0000 37.82 -999.00 7.0000 7.0000 -999.0000 7.9 -999 7.2 100.0 -999.0000 30.9360 -999.0000 13.7
2022-01-20 21:15:00 2022-01-20 13:15:00 -999.0000 37.89 -999.00 5.1000 4.8099 -999.0000 8.8 -999 5.0 98.0 -999.0000 30.9430 -999.0000 13.3
2022-01-20 21:30:00 2022-01-20 13:30:00 -999.0000 37.89 -999.00 4.0000 4.0000 -999.0000 8.5 -999 3.7 100.0 -999.0000 30.9330 -999.0000 13.3
2022-01-20 21:45:00 2022-01-20 13:45:00 -999.0000 37.89 -999.00 4.4000 4.4000 -999.0000 7.9 -999 6.0 100.0 -999.0000 30.9290 -999.0000 13.8
2022-01-20 22:00:00 2022-01-20 14:00:00 -999.0000 37.89 -999.00 3.8000 3.8000 -999.0000 8.8 -999 4.3 100.0 -999.0000 30.9330 -999.0000 13.3
2022-01-20 22:15:00 2022-01-20 14:15:00 -999.0000 37.89 -999.00 3.2000 3.2000 -999.0000 8.6 -999 2.9 100.0 -999.0000 30.9390 -999.0000 13.2
2022-01-20 22:30:00 2022-01-20 14:30:00 -999.0000 37.89 -999.00 3.3000 3.3000 -999.0000 7.8 -999 3.1 100.0 -999.0000 30.9490 -999.0000 13.2
2022-01-20 22:45:00 2022-01-20 14:45:00 -999.0000 37.89 -999.00 4.2000 4.2000 -999.0000 7.8 -999 5.8 100.0 -999.0000 30.9460 -999.0000 14.5
2022-01-20 23:00:00 2022-01-20 15:00:00 -999.0000 37.89 -999.00 4.6000 4.4562 -999.0000 9.7 -999 7.6 99.0 -999.0000 30.9530 -999.0000 13.8
2022-01-20 23:15:00 2022-01-20 15:15:00 -999.0000 37.89 -999.00 3.8000 3.8000 -999.0000 11.3 -999 4.3 100.0 -999.0000 30.9530 -999.0000 13.3
2022-01-20 23:30:00 2022-01-20 15:30:00 -999.0000 37.89 -999.00 3.8000 3.5130 -999.0000 10.8 -999 3.4 98.0 -999.0000 30.9530 -999.0000 13.2
2022-01-20 23:45:00 2022-01-20 15:45:00 -999.0000 37.89 -999.00 3.3000 3.1577 -999.0000 9.4 -999 2.8 99.0 -999.0000 30.9490 -999.0000 13.1
2022-01-21 00:00:00 2022-01-20 16:00:00 -999.0000 37.89 -999.00 3.5000 3.0686 -999.0000 7.9 -999 2.6 97.0 -999.0000 30.9560 -999.0000 13.0
2022-01-21 00:15:00 2022-01-20 16:15:00 -999.0000 37.89 -999.00 3.2000 2.9144 -999.0000 6.7 -999 2.5 98.0 -999.0000 30.9590 -999.0000 13.0
2022-01-21 00:30:00 2022-01-20 16:30:00 -999.0000 37.89 -999.00 3.2000 2.3273 -999.0000 5.8 -999 2.4 94.0 -999.0000 30.9700 -999.0000 12.9
2022-01-21 00:45:00 2022-01-20 16:45:00 -999.0000 37.90 -999.00 2.9000 2.6151 -999.0000 4.8 -999 2.1 98.0 -999.0000 30.9660 -999.0000 12.9
2022-01-21 01:00:00 2022-01-20 17:00:00 -999.0000 37.91 -999.00 2.4000 2.4000 -999.0000 4.1 -999 1.8 100.0 -999.0000 30.9630 -999.0000 12.9
2022-01-21 01:15:00 2022-01-20 17:15:00 -999.0000 37.93 -999.00 1.9000 1.9000 -999.0000 3.6 -999 1.4 100.0 -999.0000 30.9560 -999.0000 12.9
2022-01-21 01:30:00 2022-01-20 17:30:00 -999.0000 37.93 -999.00 1.7000 1.7000 -999.0000 2.8 -999 1.3 100.0 -999.0000 30.9630 -999.0000 12.9
2022-01-21 01:45:00 2022-01-20 17:45:00 -999.0000 37.95 -999.00 2.0000 2.0000 -999.0000 2.3 -999 1.3 100.0 -999.0000 30.9760 -999.0000 12.9
2022-01-21 02:00:00 2022-01-20 18:00:00 -999.0000 37.96 -999.00 1.9000 1.9000 -999.0000 1.8 -999 1.4 100.0 -999.0000 30.9760 -999.0000 12.9
2022-01-21 02:15:00 2022-01-20 18:15:00 -999.0000 37.98 -999.00 1.8000 1.8000 -999.0000 1.6 -999 1.4 100.0 -999.0000 30.9960 -999.0000 12.9
2022-01-21 02:30:00 2022-01-20 18:30:00 -999.0000 38.01 -999.00 1.7000 1.7000 -999.0000 1.4 -999 1.3 100.0 -999.0000 30.9960 -999.0000 12.9
2022-01-21 02:45:00 2022-01-20 18:45:00 -999.0000 38.02 -999.00 1.7000 1.7000 -999.0000 1.3 -999 1.3 100.0 -999.0000 31.0030 -999.0000 12.9
2022-01-21 03:00:00 2022-01-20 19:00:00 -999.0000 38.03 -999.00 1.6000 1.6000 -999.0000 1.3 -999 1.2 100.0 -999.0000 31.0060 -999.0000 12.9
2022-01-21 03:15:00 2022-01-20 19:15:00 -999.0000 38.04 -999.00 1.6000 1.6000 -999.0000 1.1 -999 1.2 100.0 -999.0000 31.0030 -999.0000 12.9
2022-01-21 03:30:00 2022-01-20 19:30:00 -999.0000 38.04 -999.00 1.4000 1.4000 -999.0000 0.9 -999 1.1 100.0 -999.0000 31.0000 -999.0000 12.9
2022-01-21 03:45:00 2022-01-20 19:45:00 -999.0000 38.05 -999.00 1.5000 1.5000 -999.0000 0.9 -999 1.1 100.0 -999.0000 31.0030 -999.0000 12.9
2022-01-21 04:00:00 2022-01-20 20:00:00 -999.0000 38.05 -999.00 1.8000 1.5176 -999.0000 0.9 -999 1.1 98.0 -999.0000 31.0060 -999.0000 12.9
2022-01-21 04:15:00 2022-01-20 20:15:00 -999.0000 38.05 -999.00 1.5000 1.5000 -999.0000 0.7 -999 1.1 100.0 -999.0000 31.0160 -999.0000 12.8
2022-01-21 04:30:00 2022-01-20 20:30:00 -999.0000 38.05 -999.00 1.5000 1.5000 -999.0000 0.7 -999 1.1 100.0 -999.0000 31.0260 -999.0000 12.8
2022-01-21 04:45:00 2022-01-20 20:45:00 -999.0000 38.05 -999.00 1.4000 1.4000 -999.0000 0.6 -999 1.1 100.0 -999.0000 31.0260 -999.0000 12.8
2022-01-21 05:00:00 2022-01-20 21:00:00 -999.0000 38.05 -999.00 1.4000 1.4000 -999.0000 0.6 -999 1.1 100.0 -999.0000 31.0330 -999.0000 12.8
2022-01-21 05:15:00 2022-01-20 21:15:00 -999.0000 38.05 -999.00 1.3000 1.3000 -999.0000 0.6 -999 1.0 100.0 -999.0000 31.0200 -999.0000 12.8
2022-01-21 05:30:00 2022-01-20 21:30:00 -999.0000 38.06 -999.00 1.3000 1.3000 -999.0000 0.6 -999 1.0 100.0 -999.0000 31.0230 -999.0000 12.8
2022-01-21 05:45:00 2022-01-20 21:45:00 -999.0000 38.06 -999.00 1.3000 1.3000 -999.0000 0.6 -999 1.0 100.0 -999.0000 31.0300 -999.0000 12.8
2022-01-21 06:00:00 2022-01-20 22:00:00 -999.0000 38.06 -999.00 1.2000 1.2000 -999.0000 0.6 -999 1.0 100.0 -999.0000 31.0400 -999.0000 12.8
2022-01-21 06:15:00 2022-01-20 22:15:00 -999.0000 38.06 -999.00 1.2000 1.2000 -999.0000 0.6 -999 1.1 100.0 -999.0000 31.0500 -999.0000 12.8
2022-01-21 06:30:00 2022-01-20 22:30:00 -999.0000 38.06 -999.00 1.2000 1.2000 -999.0000 0.6 -999 1.1 100.0 -999.0000 31.0600 -999.0000 12.8
2022-01-21 06:45:00 2022-01-20 22:45:00 -999.0000 38.06 -999.00 1.3000 1.3000 -999.0000 0.4 -999 1.0 100.0 -999.0000 31.0600 -999.0000 12.8
2022-01-21 07:00:00 2022-01-20 23:00:00 -999.0000 38.06 -999.00 1.2000 1.2000 -999.0000 0.6 -999 1.0 100.0 -999.0000 31.0570 -999.0000 12.8
2022-01-21 07:15:00 2022-01-20 23:15:00 -999.0000 38.06 -999.00 1.2000 1.2000 -999.0000 0.4 -999 1.0 100.0 -999.0000 31.0770 -999.0000 12.8
2022-01-21 07:30:00 2022-01-20 23:30:00 -999.0000 38.06 -999.00 1.2000 1.2000 -999.0000 0.6 -999 0.9 100.0 -999.0000 31.0830 -999.0000 12.8
2022-01-21 07:45:00 2022-01-20 23:45:00 -999.0000 38.06 -999.00 1.2000 1.2000 -999.0000 0.6 -999 0.9 100.0 -999.0000 31.0930 -999.0000 12.8
2022-01-21 08:00:00 2022-01-21 00:00:00 -999.0000 38.06 -999.00 1.2000 1.2000 -999.0000 0.4 -999 0.9 100.0 -999.0000 31.0970 -999.0000 12.8
2022-01-21 08:15:00 2022-01-21 00:15:00 -999.0000 38.06 -999.00 1.3000 1.3000 -999.0000 0.6 -999 0.9 100.0 -999.0000 31.1070 -999.0000 12.8
2022-01-21 08:30:00 2022-01-21 00:30:00 -999.0000 38.06 -999.00 1.2000 1.2000 -999.0000 0.6 -999 0.8 100.0 -999.0000 31.1170 -999.0000 12.8
2022-01-21 08:45:00 2022-01-21 00:45:00 -999.0000 38.06 -999.00 1.2000 1.2000 -999.0000 0.4 -999 0.9 100.0 -999.0000 31.1170 -999.0000 12.8
2022-01-21 09:00:00 2022-01-21 01:00:00 -999.0000 38.06 -999.00 1.2000 1.2000 -999.0000 0.4 -999 0.8 100.0 -999.0000 31.1270 -999.0000 12.8
2022-01-21 09:15:00 2022-01-21 01:15:00 -999.0000 38.07 -999.00 1.2000 1.2000 -999.0000 0.4 -999 0.8 100.0 -999.0000 31.1300 -999.0000 12.8
2022-01-21 09:30:00 2022-01-21 01:30:00 -999.0000 38.07 -999.00 1.1000 1.1000 -999.0000 0.4 -999 0.7 100.0 -999.0000 31.1330 -999.0000 12.8
2022-01-21 09:45:00 2022-01-21 01:45:00 -999.0000 38.07 -999.00 1.1000 1.1000 -999.0000 0.2 -999 0.7 100.0 -999.0000 31.1370 -999.0000 12.8
2022-01-21 10:00:00 2022-01-21 02:00:00 -999.0000 38.07 -999.00 1.1000 1.1000 -999.0000 0.2 -999 0.7 100.0 -999.0000 31.1540 -999.0000 12.8
2022-01-21 10:15:00 2022-01-21 02:15:00 -999.0000 38.07 -999.00 1.1000 1.1000 -999.0000 0.2 -999 0.7 100.0 -999.0000 31.1570 -999.0000 12.8
2022-01-21 10:30:00 2022-01-21 02:30:00 -999.0000 38.07 -999.00 1.1000 1.1000 -999.0000 0.2 -999 0.7 100.0 -999.0000 31.1770 -999.0000 12.8
2022-01-21 10:45:00 2022-01-21 02:45:00 -999.0000 38.07 -999.00 1.1000 1.1000 -999.0000 0.0 -999 0.6 100.0 -999.0000 31.1800 -999.0000 12.8
2022-01-21 11:00:00 2022-01-21 03:00:00 -999.0000 38.07 -999.00 1.0000 1.0000 -999.0000 0.0 -999 0.6 100.0 -999.0000 31.1870 -999.0000 12.8
2022-01-21 11:15:00 2022-01-21 03:15:00 -999.0000 38.08 -999.00 1.0000 1.0000 -999.0000 0.0 -999 0.6 100.0 -999.0000 31.1940 -999.0000 12.8
2022-01-21 11:30:00 2022-01-21 03:30:00 -999.0000 38.08 -999.00 1.0000 1.0000 -999.0000 0.0 -999 0.6 100.0 -999.0000 31.1940 -999.0000 12.8
2022-01-21 11:45:00 2022-01-21 03:45:00 -999.0000 38.08 -999.00 1.0000 1.0000 -999.0000 0.0 -999 0.6 100.0 -999.0000 31.1940 -999.0000 12.8
2022-01-21 12:00:00 2022-01-21 04:00:00 -999.0000 38.08 -999.00 1.0000 1.0000 -999.0000 0.0 -999 0.5 100.0 -999.0000 31.1940 -999.0000 12.8
2022-01-21 12:15:00 2022-01-21 04:15:00 -999.0000 38.08 -999.00 1.0000 1.0000 -999.0000 0.0 -999 0.6 100.0 -999.0000 31.2070 -999.0000 12.8
2022-01-21 12:30:00 2022-01-21 04:30:00 -999.0000 38.08 -999.00 0.9000 0.9000 -999.0000 0.0 -999 0.5 100.0 -999.0000 31.1940 -999.0000 12.8
2022-01-21 12:45:00 2022-01-21 04:45:00 -999.0000 38.08 -999.00 0.9000 0.9000 -999.0000 0.0 -999 0.4 100.0 -999.0000 31.1870 -999.0000 12.8
2022-01-21 13:00:00 2022-01-21 05:00:00 -999.0000 38.08 -999.00 0.8000 0.8000 -999.0000 0.0 -999 0.3 100.0 -999.0000 31.1870 -999.0000 12.8
2022-01-21 13:15:00 2022-01-21 05:15:00 -999.0000 38.08 -999.00 0.7000 0.7000 -999.0000 -0.1 -999 0.2 100.0 -999.0000 31.1940 -999.0000 12.8
2022-01-21 13:30:00 2022-01-21 05:30:00 -999.0000 38.08 -999.00 0.5000 0.5000 -999.0000 -0.1 -999 0.1 100.0 -999.0000 31.1940 -999.0000 12.8
2022-01-21 13:45:00 2022-01-21 05:45:00 -999.0000 38.08 -999.00 0.4000 0.4000 -999.0000 -0.3 -999 0.0 100.0 -999.0000 31.2000 -999.0000 12.8
2022-01-21 14:00:00 2022-01-21 06:00:00 -999.0000 38.08 -999.00 0.4000 0.4000 -999.0000 -0.5 -999 0.0 100.0 -999.0000 31.1970 -999.0000 12.8
2022-01-21 14:15:00 2022-01-21 06:15:00 -999.0000 38.08 -999.00 0.4000 0.4000 -999.0000 -0.5 -999 0.0 100.0 -999.0000 31.1940 -999.0000 12.8
2022-01-21 14:30:00 2022-01-21 06:30:00 -999.0000 38.08 -999.00 0.5000 0.5000 -999.0000 -0.5 -999 0.0 100.0 -999.0000 31.2070 -999.0000 12.8
2022-01-21 14:45:00 2022-01-21 06:45:00 -999.0000 38.08 -999.00 0.4000 0.4000 -999.0000 -0.7 -999 0.0 100.0 -999.0000 31.2200 -999.0000 12.8
2022-01-21 15:00:00 2022-01-21 07:00:00 -999.0000 38.08 -999.00 0.3000 0.3000 -999.0000 -0.7 -999 0.0 100.0 -999.0000 31.1970 -999.0000 12.8
2022-01-21 15:15:00 2022-01-21 07:15:00 -999.0000 38.08 -999.00 0.3000 0.3000 -999.0000 -0.7 -999 0.0 100.0 -999.0000 31.2000 -999.0000 12.8
2022-01-21 15:30:00 2022-01-21 07:30:00 -999.0000 38.08 -999.00 0.2000 0.2000 -999.0000 -0.7 -999 0.0 100.0 -999.0000 31.1970 -999.0000 12.8
2022-01-21 15:45:00 2022-01-21 07:45:00 -999.0000 38.08 -999.00 0.0000 0.0000 -999.0000 -0.8 -999 0.0 100.0 -999.0000 31.2000 -999.0000 12.8
2022-01-21 16:00:00 2022-01-21 08:00:00 -999.0000 38.08 -999.00 0.0000 0.0000 -999.0000 -1.0 -999 0.0 100.0 -999.0000 31.2040 -999.0000 12.8
2022-01-21 16:15:00 2022-01-21 08:15:00 -999.0000 38.08 -999.00 0.0000 0.0000 -999.0000 -1.0 -999 -0.1 100.0 -999.0000 31.1900 -999.0000 12.8
2022-01-21 16:30:00 2022-01-21 08:30:00 -999.0000 38.08 -999.00 -0.1000 -0.1000 -999.0000 -1.0 -999 -0.1 100.0 -999.0000 31.2070 -999.0000 12.8
2022-01-21 16:45:00 2022-01-21 08:45:00 -999.0000 38.08 -999.00 0.0000 0.0000 -999.0000 -1.2 -999 -0.1 100.0 -999.0000 31.2170 -999.0000 12.8
2022-01-21 17:00:00 2022-01-21 09:00:00 -999.0000 38.08 -999.00 0.0000 0.0000 -999.0000 -1.2 -999 -0.1 100.0 -999.0000 31.2300 -999.0000 12.8
2022-01-21 17:15:00 2022-01-21 09:15:00 -999.0000 38.08 -999.00 0.0000 0.0000 -999.0000 -1.0 -999 -0.1 100.0 -999.0000 31.2440 -999.0000 12.8
2022-01-21 17:30:00 2022-01-21 09:30:00 -999.0000 38.08 -999.00 0.0000 0.0000 -999.0000 -0.8 -999 -0.1 100.0 -999.0000 31.2640 -999.0000 12.8
2022-01-21 17:45:00 2022-01-21 09:45:00 -999.0000 38.08 -999.00 0.0000 0.0000 -999.0000 -0.8 -999 0.0 100.0 -999.0000 31.2670 -999.0000 12.9
2022-01-21 18:00:00 2022-01-21 10:00:00 -999.0000 38.08 -999.00 0.3000 0.3000 -999.0000 -0.7 -999 0.0 100.0 -999.0000 31.2740 -999.0000 13.0
2022-01-21 18:15:00 2022-01-21 10:15:00 -999.0000 38.08 -999.00 0.6000 0.6000 -999.0000 -0.5 -999 0.0 100.0 -999.0000 31.2770 -999.0000 13.1
2022-01-21 18:30:00 2022-01-21 10:30:00 -999.0000 38.08 -999.00 0.7000 0.7000 -999.0000 0.2 -999 0.0 100.0 -999.0000 31.2840 -999.0000 13.1
2022-01-21 18:45:00 2022-01-21 10:45:00 -999.0000 38.08 -999.00 0.6000 0.6000 -999.0000 0.6 -999 0.1 100.0 -999.0000 31.2870 -999.0000 13.1
2022-01-21 19:00:00 2022-01-21 11:00:00 -999.0000 38.08 -999.00 0.8000 0.8000 -999.0000 0.7 -999 0.2 100.0 -999.0000 31.2740 -999.0000 13.2
2022-01-21 19:15:00 2022-01-21 11:15:00 -999.0000 38.08 -999.00 1.1000 1.1000 -999.0000 1.1 -999 0.5 100.0 -999.0000 31.2610 -999.0000 13.2
2022-01-21 19:30:00 2022-01-21 11:30:00 -999.0000 38.08 -999.00 1.2000 1.2000 -999.0000 1.4 -999 0.8 100.0 -999.0000 31.2710 -999.0000 13.3
2022-01-21 19:45:00 2022-01-21 11:45:00 -999.0000 38.08 -999.00 1.4000 1.2599 -999.0000 1.8 -999 1.4 99.0 -999.0000 31.2640 -999.0000 13.4
2022-01-21 20:00:00 2022-01-21 12:00:00 -999.0000 38.08 -999.00 1.8000 1.6594 -999.0000 2.5 -999 2.1 99.0 -999.0000 31.2640 -999.0000 14.1
2022-01-21 20:15:00 2022-01-21 12:15:00 -999.0000 38.08 -999.00 2.0000 1.7171 -999.0000 3.7 -999 3.3 98.0 -999.0000 31.2540 -999.0000 13.7
2022-01-21 20:30:00 2022-01-21 12:30:00 -999.0000 38.08 -999.00 2.1000 1.6734 -999.0000 5.5 -999 5.3 97.0 -999.0000 31.2440 -999.0000 14.5
2022-01-21 20:45:00 2022-01-21 12:45:00 -999.0000 38.08 -999.00 3.0000 2.4245 -999.0000 8.5 -999 5.9 96.0 -999.0000 31.2470 -999.0000 14.2
2022-01-21 21:00:00 2022-01-21 13:00:00 -999.0000 38.08 -999.00 2.9000 2.4707 -999.0000 11.3 -999 5.3 97.0 -999.0000 31.2470 -999.0000 14.1
2022-01-21 21:15:00 2022-01-21 13:15:00 -999.0000 38.08 -999.00 3.5000 3.0686 -999.0000 13.0 -999 8.1 97.0 -999.0000 31.2410 -999.0000 14.3
2022-01-21 21:30:00 2022-01-21 13:30:00 -999.0000 38.08 -999.00 3.6000 2.8737 -999.0000 16.0 -999 8.2 95.0 -999.0000 31.2410 -999.0000 14.1
2022-01-21 21:45:00 2022-01-21 13:45:00 -999.0000 38.08 -999.00 3.6000 2.8737 -999.0000 17.8 -999 7.6 95.0 -999.0000 31.2410 -999.0000 14.3
2022-01-21 22:00:00 2022-01-21 14:00:00 -999.0000 38.08 -999.00 3.3000 2.7230 -999.0000 18.1 -999 6.4 96.0 -999.0000 31.2410 -999.0000 13.9
2022-01-21 22:15:00 2022-01-21 14:15:00 -999.0000 38.08 -999.00 2.7000 2.4155 -999.0000 17.4 -999 4.1 98.0 -999.0000 31.2340 -999.0000 13.5
2022-01-21 22:30:00 2022-01-21 14:30:00 -999.0000 38.08 -999.00 2.6000 2.6000 -999.0000 15.7 -999 3.1 100.0 -999.0000 31.2370 -999.0000 13.3
2022-01-21 22:45:00 2022-01-21 14:45:00 -999.0000 38.08 -999.00 2.5000 2.5000 -999.0000 13.4 -999 2.6 100.0 -999.0000 31.2410 -999.0000 13.2
2022-01-21 23:00:00 2022-01-21 15:00:00 -999.0000 38.08 -999.00 2.3000 2.3000 -999.0000 11.3 -999 2.2 100.0 -999.0000 31.2340 -999.0000 13.1
2022-01-21 23:15:00 2022-01-21 15:15:00 -999.0000 38.08 -999.00 2.2000 2.2000 -999.0000 9.5 -999 2.0 100.0 -999.0000 31.2470 -999.0000 13.0
2022-01-21 23:30:00 2022-01-21 15:30:00 -999.0000 38.08 -999.00 2.2000 2.2000 -999.0000 8.1 -999 1.9 100.0 -999.0000 31.2470 -999.0000 13.0
2022-01-21 23:45:00 2022-01-21 15:45:00 -999.0000 38.08 -999.00 2.1000 2.1000 -999.0000 6.7 -999 1.7 100.0 -999.0000 31.2440 -999.0000 13.0
2022-01-22 00:00:00 2022-01-21 16:00:00 -999.0000 38.08 -999.00 2.0000 2.0000 -999.0000 5.7 -999 1.6 100.0 -999.0000 31.2440 -999.0000 13.0
2022-01-22 00:15:00 2022-01-21 16:15:00 -999.0000 38.08 -999.00 1.9000 1.9000 -999.0000 4.8 -999 1.5 100.0 -999.0000 31.2440 -999.0000 13.0
2022-01-22 00:30:00 2022-01-21 16:30:00 -999.0000 38.08 -999.00 1.9000 1.9000 -999.0000 4.1 -999 1.4 100.0 -999.0000 31.2470 -999.0000 12.9
2022-01-22 00:45:00 2022-01-21 16:45:00 -999.0000 38.08 -999.00 1.8000 1.8000 -999.0000 3.4 -999 1.4 100.0 -999.0000 31.2540 -999.0000 12.9
2022-01-22 01:00:00 2022-01-21 17:00:00 -999.0000 38.08 -999.00 1.7000 1.7000 -999.0000 2.8 -999 1.3 100.0 -999.0000 31.2540 -999.0000 12.9
2022-01-22 01:15:00 2022-01-21 17:15:00 -999.0000 38.08 -999.00 1.7000 1.7000 -999.0000 2.5 -999 1.2 100.0 -999.0000 31.2410 -999.0000 12.9
2022-01-22 01:30:00 2022-01-21 17:30:00 -999.0000 38.08 -999.00 1.6000 1.6000 -999.0000 2.1 -999 1.2 100.0 -999.0000 31.2440 -999.0000 12.9
2022-01-22 01:45:00 2022-01-21 17:45:00 -999.0000 38.08 -999.00 1.6000 1.6000 -999.0000 1.8 -999 1.1 100.0 -999.0000 31.2440 -999.0000 12.9
2022-01-22 02:00:00 2022-01-21 18:00:00 -999.0000 38.08 -999.00 1.6000 1.6000 -999.0000 1.6 -999 1.2 100.0 -999.0000 31.2340 -999.0000 12.9
2022-01-22 02:15:00 2022-01-21 18:15:00 -999.0000 38.08 -999.00 1.6000 1.6000 -999.0000 1.3 -999 1.1 100.0 -999.0000 31.2340 -999.0000 12.9
2022-01-22 02:30:00 2022-01-21 18:30:00 -999.0000 38.08 -999.00 1.4000 1.4000 -999.0000 1.3 -999 1.0 100.0 -999.0000 31.2370 -999.0000 12.9
2022-01-22 02:45:00 2022-01-21 18:45:00 -999.0000 38.08 -999.00 1.2000 1.2000 -999.0000 0.9 -999 0.7 100.0 -999.0000 31.2340 -999.0000 12.9
2022-01-22 03:00:00 2022-01-21 19:00:00 -999.0000 38.08 -999.00 0.9000 0.9000 -999.0000 0.7 -999 0.4 100.0 -999.0000 31.2270 -999.0000 12.9
2022-01-22 03:15:00 2022-01-21 19:15:00 -999.0000 38.08 -999.00 0.5000 0.5000 -999.0000 0.4 -999 0.2 100.0 -999.0000 31.2300 -999.0000 12.9
2022-01-22 03:30:00 2022-01-21 19:30:00 -999.0000 38.08 -999.00 0.4000 0.4000 -999.0000 0.4 -999 0.0 100.0 -999.0000 31.2370 -999.0000 12.9
2022-01-22 03:45:00 2022-01-21 19:45:00 -999.0000 38.08 -999.00 0.2000 0.2000 -999.0000 0.0 -999 -0.2 100.0 -999.0000 31.2300 -999.0000 12.9
2022-01-22 04:00:00 2022-01-21 20:00:00 -999.0000 38.08 -999.00 0.0000 0.0000 -999.0000 -0.3 -999 -0.4 100.0 -999.0000 31.2240 -999.0000 12.9
2022-01-22 04:15:00 2022-01-21 20:15:00 -999.0000 38.08 -999.00 -0.1000 -0.1000 -999.0000 -0.5 -999 -0.6 100.0 -999.0000 31.2200 -999.0000 12.9
2022-01-22 04:30:00 2022-01-21 20:30:00 -999.0000 38.08 -999.00 0.0000 0.0000 -999.0000 -0.7 -999 -0.3 100.0 -999.0000 31.2170 -999.0000 12.9
2022-01-22 04:45:00 2022-01-21 20:45:00 -999.0000 38.08 -999.00 0.0000 0.0000 -999.0000 -0.8 -999 -0.2 100.0 -999.0000 31.2200 -999.0000 12.9
2022-01-22 05:00:00 2022-01-21 21:00:00 -999.0000 38.08 -999.00 -0.1000 -0.1000 -999.0000 -1.0 -999 -0.2 100.0 -999.0000 31.2200 -999.0000 12.9
2022-01-22 05:15:00 2022-01-21 21:15:00 -999.0000 38.08 -999.00 -0.1000 -0.1000 -999.0000 -1.2 -999 -0.2 100.0 -999.0000 31.2200 -999.0000 12.8
2022-01-22 05:30:00 2022-01-21 21:30:00 -999.0000 38.08 -999.00 -0.1000 -0.1000 -999.0000 -1.2 -999 -0.2 100.0 -999.0000 31.2100 -999.0000 12.8
2022-01-22 05:45:00 2022-01-21 21:45:00 -999.0000 38.08 -999.00 0.0000 0.0000 -999.0000 -1.4 -999 -0.2 100.0 -999.0000 31.2100 -999.0000 12.9
2022-01-22 06:00:00 2022-01-21 22:00:00 -999.0000 38.08 -999.00 -0.1000 -0.1000 -999.0000 -1.5 -999 -0.3 100.0 -999.0000 31.2070 -999.0000 12.9
2022-01-22 06:15:00 2022-01-21 22:15:00 -999.0000 38.08 -999.00 -0.1000 -0.1000 -999.0000 -1.5 -999 -0.3 100.0 -999.0000 31.2070 -999.0000 12.8
2022-01-22 06:30:00 2022-01-21 22:30:00 -999.0000 38.08 -999.00 -0.1000 -0.1000 -999.0000 -1.5 -999 -0.4 100.0 -999.0000 31.2000 -999.0000 12.8
2022-01-22 06:45:00 2022-01-21 22:45:00 -999.0000 38.08 -999.00 -0.2000 -0.2000 -999.0000 -1.5 -999 -0.4 100.0 -999.0000 31.1940 -999.0000 12.8
2022-01-22 07:00:00 2022-01-21 23:00:00 -999.0000 38.08 -999.00 -0.2000 -0.2000 -999.0000 -1.5 -999 -0.5 100.0 -999.0000 31.1970 -999.0000 12.9
2022-01-22 07:15:00 2022-01-21 23:15:00 -999.0000 38.08 -999.00 -0.2000 -0.2000 -999.0000 -1.5 -999 -0.5 100.0 -999.0000 31.1840 -999.0000 12.8
2022-01-22 07:30:00 2022-01-21 23:30:00 -999.0000 38.08 -999.00 -0.3000 -0.3000 -999.0000 -1.5 -999 -0.5 100.0 -999.0000 31.1870 -999.0000 12.8
2022-01-22 07:45:00 2022-01-21 23:45:00 -999.0000 38.08 -999.00 -0.3000 -0.3000 -999.0000 -1.7 -999 -0.6 100.0 -999.0000 31.1900 -999.0000 12.8